
Distance (Route):
Temperature : 0°C
Humidity : 0%
Pressure : 0hPa| Receiver | Date | Latitude | Longitude | Direction | Speed | Altitude | Climb | Temperature | Humidity | Pressure | Voltage | Killtimer | Uptime | BKT | XDATA |
|---|---|---|---|---|---|---|---|---|---|---|---|---|---|---|---|
| 9A1FER-10 | 2026-08-31 01:23:29 | 46.05212 | 15.35060 | 38° | 20km/h | 2331m | -11.5m/s | 0°C | 0% | 0hPa | 0V | 00:00:00 | 00:00:00 | 00:00:00 | |
| 9A1FER-10 | 2026-08-31 01:23:19 | 46.05179 | 15.35009 | 54° | 22km/h | 2439m | -10.5m/s | 0°C | 0% | 0hPa | 0V | 00:00:00 | 00:00:00 | 00:00:00 | |
| 9A1FER-10 | 2026-08-31 01:23:09 | 46.05145 | 15.34945 | 52° | 22km/h | 2541m | -11.2m/s | 0°C | 0% | 0hPa | 0V | 00:00:00 | 00:00:00 | 00:00:00 | |
| 9A1FER-10 | 2026-08-31 01:22:59 | 46.05109 | 15.34888 | 45° | 26km/h | 2655m | -12.0m/s | 0°C | 0% | 0hPa | 0V | 00:00:00 | 00:00:00 | 00:00:00 | |
| 9A1FER-3 | 2026-08-31 01:22:58 | 46.05105 | 15.34883 | 43° | 27km/h | 2667m | -11.8m/s | 0°C | 0% | 0hPa | 0V | 00:00:00 | 00:00:00 | 00:00:00 | |
| 9A1FER-10 | 2026-08-31 01:22:49 | 46.05060 | 15.34825 | 46° | 29km/h | 2765m | -11.4m/s | 0°C | 0% | 0hPa | 0V | 00:00:00 | 00:00:00 | 00:00:00 | |
| 9A1FER-3 | 2026-08-31 01:22:48 | 46.05055 | 15.34817 | 47° | 29km/h | 2776m | -10.5m/s | 0°C | 0% | 0hPa | 0V | 00:00:00 | 00:00:00 | 00:00:00 | |
| 9A1FER-10 | 2026-08-31 01:22:39 | 46.05007 | 15.34753 | 48° | 29km/h | 2873m | -10.1m/s | 0°C | 0% | 0hPa | 0V | 00:00:00 | 00:00:00 | 00:00:00 | |
| 9A1FER-3 | 2026-08-31 01:22:38 | 46.05002 | 15.34745 | 46° | 29km/h | 2883m | -9.9m/s | 0°C | 0% | 0hPa | 0V | 00:00:00 | 00:00:00 | 00:00:00 | |
| 9A1FER-3 | 2026-08-31 01:22:28 | 46.04958 | 15.34661 | 63° | 24km/h | 2996m | -11.1m/s | 0°C | 0% | 0hPa | 0V | 00:00:00 | 00:00:00 | 00:00:00 | |
| 9A1FER-10 | 2026-08-31 01:22:18 | 46.04928 | 15.34579 | 59° | 20km/h | 3108m | -11.3m/s | 0°C | 0% | 0hPa | 0V | 00:00:00 | 00:00:00 | 00:00:00 | |
| 9A1FER-3 | 2026-08-31 01:22:15 | 46.04920 | 15.34561 | 65° | 18km/h | 3141m | -11.6m/s | 0°C | 0% | 0hPa | 0V | 00:00:00 | 00:00:00 | 00:00:00 | |
| 9A1FER-10 | 2026-08-31 01:22:03 | 46.04881 | 15.34499 | 40° | 18km/h | 3268m | -10.7m/s | 0°C | 0% | 0hPa | 0V | 00:00:00 | 00:00:00 | 00:00:00 | |
| 9A1FER-3 | 2026-08-31 01:22:00 | 46.04870 | 15.34486 | 34° | 18km/h | 3298m | -11.5m/s | 0°C | 0% | 0hPa | 0V | 00:00:00 | 00:00:00 | 00:00:00 | |
| 9A1FER-10 | 2026-08-31 01:21:48 | 46.04825 | 15.34435 | 44° | 22km/h | 3428m | -11.4m/s | 0°C | 0% | 0hPa | 0V | 00:00:00 | 00:00:00 | 00:00:00 | |
| 9A1FER-3 | 2026-08-31 01:21:45 | 46.04814 | 15.34418 | 43° | 24km/h | 3463m | -11.3m/s | 0°C | 0% | 0hPa | 0V | 00:00:00 | 00:00:00 | 00:00:00 | |
| 9A1FER-10 | 2026-08-31 01:21:33 | 46.04780 | 15.34333 | 65° | 27km/h | 3599m | -11.4m/s | 0°C | 0% | 0hPa | 0V | 00:00:00 | 00:00:00 | 00:00:00 | |
| 9A1FER-3 | 2026-08-31 01:21:30 | 46.04771 | 15.34308 | 62° | 26km/h | 3632m | -11.4m/s | 0°C | 0% | 0hPa | 0V | 00:00:00 | 00:00:00 | 00:00:00 | |
| 9A1FER-10 | 2026-08-31 01:21:18 | 46.04730 | 15.34209 | 49° | 27km/h | 3763m | -11.7m/s | 0°C | 0% | 0hPa | 0V | 00:00:00 | 00:00:00 | 00:00:00 | |
| 9A1FER-3 | 2026-08-31 01:21:15 | 46.04718 | 15.34189 | 48° | 29km/h | 3796m | -10.7m/s | 0°C | 0% | 0hPa | 0V | 00:00:00 | 00:00:00 | 00:00:00 | |
| 9A1FER-10 | 2026-08-31 01:21:03 | 46.04659 | 15.34102 | 44° | 29km/h | 3929m | -11.6m/s | 0°C | 0% | 0hPa | 0V | 00:00:00 | 00:00:00 | 00:00:00 | |
| 9A1FER-3 | 2026-08-31 01:21:00 | 46.04643 | 15.34080 | 45° | 29km/h | 3964m | -11.2m/s | 0°C | 0% | 0hPa | 0V | 00:00:00 | 00:00:00 | 00:00:00 | |
| 9A1FER-10 | 2026-08-31 01:20:48 | 46.04575 | 15.33991 | 46° | 29km/h | 4103m | -10.7m/s | 0°C | 0% | 0hPa | 0V | 00:00:00 | 00:00:00 | 00:00:00 | |
| 9A1FER-3 | 2026-08-31 01:20:45 | 46.04560 | 15.33969 | 46° | 31km/h | 4134m | -10.2m/s | 0°C | 0% | 0hPa | 0V | 00:00:00 | 00:00:00 | 00:00:00 | |
| 9A1FER-10 | 2026-08-31 01:20:33 | 46.04496 | 15.33874 | 45° | 33km/h | 4264m | -12.4m/s | 0°C | 0% | 0hPa | 0V | 00:00:00 | 00:00:00 | 00:00:00 | |
| 9A1FER-3 | 2026-08-31 01:20:30 | 46.04480 | 15.33849 | 53° | 33km/h | 4299m | -11.7m/s | 0°C | 0% | 0hPa | 0V | 00:00:00 | 00:00:00 | 00:00:00 | |
| 9A1FER-10 | 2026-08-31 01:20:18 | 46.04418 | 15.33734 | 58° | 35km/h | 4441m | -11.2m/s | 0°C | 0% | 0hPa | 0V | 00:00:00 | 00:00:00 | 00:00:00 | |
| 9A1FER-3 | 2026-08-31 01:20:15 | 46.04403 | 15.33701 | 59° | 35km/h | 4477m | -11.6m/s | 0°C | 0% | 0hPa | 0V | 00:00:00 | 00:00:00 | 00:00:00 | |
| 9A1FER-10 | 2026-08-31 01:20:03 | 46.04345 | 15.33571 | 54° | 37km/h | 4618m | -11.3m/s | 0°C | 0% | 0hPa | 0V | 00:00:00 | 00:00:00 | 00:00:00 | |
| 9A1FER-3 | 2026-08-31 01:20:00 | 46.04332 | 15.33537 | 67° | 38km/h | 4652m | -11.2m/s | 0°C | 0% | 0hPa | 0V | 00:00:00 | 00:00:00 | 00:00:00 | |
| 9A1FER-10 | 2026-08-31 01:19:48 | 46.04285 | 15.33390 | 66° | 42km/h | 4798m | -13.4m/s | 0°C | 0% | 0hPa | 0V | 00:00:00 | 00:00:00 | 00:00:00 | |
| 9A1FER-3 | 2026-08-31 01:19:45 | 46.04272 | 15.33349 | 67° | 42km/h | 4834m | -11.3m/s | 0°C | 0% | 0hPa | 0V | 00:00:00 | 00:00:00 | 00:00:00 | |
| 9A1FER-10 | 2026-08-31 01:19:33 | 46.04227 | 15.33180 | 73° | 38km/h | 4983m | -13.9m/s | 0°C | 0% | 0hPa | 0V | 00:00:00 | 00:00:00 | 00:00:00 | |
| 9A1FER-3 | 2026-08-31 01:19:30 | 46.04216 | 15.33137 | 71° | 35km/h | 5026m | -13.4m/s | 0°C | 0% | 0hPa | 0V | 00:00:00 | 00:00:00 | 00:00:00 | |
| 9A1FER-10 | 2026-08-31 01:19:18 | 46.04171 | 15.32991 | 65° | 33km/h | 5172m | -13.0m/s | 0°C | 0% | 0hPa | 0V | 00:00:00 | 00:00:00 | 00:00:00 | |
| 9A1FER-3 | 2026-08-31 01:19:15 | 46.04159 | 15.32961 | 64° | 33km/h | 5209m | -11.8m/s | 0°C | 0% | 0hPa | 0V | 00:00:00 | 00:00:00 | 00:00:00 | |
| 9A1FER-10 | 2026-08-31 01:19:03 | 46.04117 | 15.32832 | 64° | 29km/h | 5354m | -12.7m/s | 0°C | 0% | 0hPa | 0V | 00:00:00 | 00:00:00 | 00:00:00 | |
| 9A1FER-3 | 2026-08-31 01:19:00 | 46.04107 | 15.32804 | 66° | 31km/h | 5393m | -13.1m/s | 0°C | 0% | 0hPa | 0V | 00:00:00 | 00:00:00 | 00:00:00 | |
| 9A1FER-10 | 2026-08-31 01:18:48 | 46.04062 | 15.32688 | 63° | 35km/h | 5535m | -12.3m/s | 0°C | 0% | 0hPa | 0V | 00:00:00 | 00:00:00 | 00:00:00 | |
| 9A1FER-3 | 2026-08-31 01:18:45 | 46.04051 | 15.32655 | 60° | 35km/h | 5571m | -12.0m/s | 0°C | 0% | 0hPa | 0V | 00:00:00 | 00:00:00 | 00:00:00 | |
| 9A1FER-10 | 2026-08-31 01:18:33 | 46.04019 | 15.32512 | 80° | 37km/h | 5715m | -11.6m/s | 0°C | 0% | 0hPa | 0V | 00:00:00 | 00:00:00 | 00:00:00 | |
| 9A1FER-3 | 2026-08-31 01:18:30 | 46.04014 | 15.32476 | 78° | 37km/h | 5750m | -10.8m/s | 0°C | 0% | 0hPa | 0V | 00:00:00 | 00:00:00 | 00:00:00 | |
| 9A1FER-10 | 2026-08-31 01:18:18 | 46.03989 | 15.32315 | 78° | 40km/h | 5890m | -12.3m/s | 0°C | 0% | 0hPa | 0V | 00:00:00 | 00:00:00 | 00:00:00 | |
| 9A1FER-3 | 2026-08-31 01:18:15 | 46.03983 | 15.32273 | 80° | 42km/h | 5927m | -13.0m/s | 0°C | 0% | 0hPa | 0V | 00:00:00 | 00:00:00 | 00:00:00 | |
| 9A1FER-10 | 2026-08-31 01:18:03 | 46.03957 | 15.32097 | 83° | 42km/h | 6069m | -10.6m/s | 0°C | 0% | 0hPa | 0V | 00:00:00 | 00:00:00 | 00:00:00 | |
| 9A1FER-3 | 2026-08-31 01:18:00 | 46.03951 | 15.32050 | 78° | 42km/h | 6103m | -12.9m/s | 0°C | 0% | 0hPa | 0V | 00:00:00 | 00:00:00 | 00:00:00 | |
| 9A1FER-10 | 2026-08-31 01:17:48 | 46.03932 | 15.31870 | 84° | 42km/h | 6252m | -13.1m/s | 0°C | 0% | 0hPa | 0V | 00:00:00 | 00:00:00 | 00:00:00 | |
| 9A1FER-3 | 2026-08-31 01:17:45 | 46.03929 | 15.31825 | 85° | 44km/h | 6288m | -12.9m/s | 0°C | 0% | 0hPa | 0V | 00:00:00 | 00:00:00 | 00:00:00 | |
| 9A1FER-10 | 2026-08-31 01:17:33 | 46.03920 | 15.31637 | 82° | 44km/h | 6432m | -11.9m/s | 0°C | 0% | 0hPa | 0V | 00:00:00 | 00:00:00 | 00:00:00 | |
| 9A1FER-3 | 2026-08-31 01:17:30 | 46.03916 | 15.31590 | 83° | 44km/h | 6467m | -13.7m/s | 0°C | 0% | 0hPa | 0V | 00:00:00 | 00:00:00 | 00:00:00 | |
| 9A1FER-10 | 2026-08-31 01:17:18 | 46.03907 | 15.31399 | 88° | 46km/h | 6616m | -12.5m/s | 0°C | 0% | 0hPa | 0V | 00:00:00 | 00:00:00 | 00:00:00 | |
| 9A1FER-3 | 2026-08-31 01:17:15 | 46.03904 | 15.31349 | 84° | 46km/h | 6654m | -12.8m/s | 0°C | 0% | 0hPa | 0V | 00:00:00 | 00:00:00 | 00:00:00 | |
| 9A1FER-10 | 2026-08-31 01:17:03 | 46.03889 | 15.31154 | 82° | 46km/h | 6808m | -11.1m/s | 0°C | 0% | 0hPa | 0V | 00:00:00 | 00:00:00 | 00:00:00 | |
| 9A1FER-3 | 2026-08-31 01:17:00 | 46.03886 | 15.31106 | 86° | 46km/h | 6842m | -13.4m/s | 0°C | 0% | 0hPa | 0V | 00:00:00 | 00:00:00 | 00:00:00 | |
| 9A1FER-10 | 2026-08-31 01:16:48 | 46.03868 | 15.30906 | 86° | 47km/h | 6993m | -12.9m/s | 0°C | 0% | 0hPa | 0V | 00:00:00 | 00:00:00 | 00:00:00 | |
| 9A1FER-10 | 2026-08-31 01:16:33 | 46.03858 | 15.30648 | 91° | 51km/h | 7178m | -10.9m/s | 0°C | 0% | 0hPa | 0V | 00:00:00 | 00:00:00 | 00:00:00 | |
| 9A1FER-3 | 2026-08-31 01:16:29 | 46.03854 | 15.30574 | 86° | 53km/h | 7223m | -13.8m/s | 0°C | 0% | 0hPa | 0V | 00:00:00 | 00:00:00 | 00:00:00 | |
| 9A1FER-10 | 2026-08-31 01:16:18 | 46.03838 | 15.30369 | 82° | 55km/h | 7360m | -12.9m/s | 0°C | 0% | 0hPa | 0V | 00:00:00 | 00:00:00 | 00:00:00 | |
| 9A1FER-3 | 2026-08-31 01:16:14 | 46.03828 | 15.30290 | 84° | 53km/h | 7410m | -13.1m/s | 0°C | 0% | 0hPa | 0V | 00:00:00 | 00:00:00 | 00:00:00 | |
| 9A1FER-10 | 2026-08-31 01:16:03 | 46.03807 | 15.30079 | 81° | 49km/h | 7544m | -12.8m/s | 0°C | 0% | 0hPa | 0V | 00:00:00 | 00:00:00 | 00:00:00 | |
| 9A1FER-3 | 2026-08-31 01:15:59 | 46.03800 | 15.30006 | 84° | 49km/h | 7596m | -13.5m/s | 0°C | 0% | 0hPa | 0V | 00:00:00 | 00:00:00 | 00:00:00 | |
| 9A1FER-10 | 2026-08-31 01:15:48 | 46.03786 | 15.29809 | 85° | 51km/h | 7740m | -14.0m/s | 0°C | 0% | 0hPa | 0V | 00:00:00 | 00:00:00 | 00:00:00 | |
| 9A1FER-3 | 2026-08-31 01:15:44 | 46.03782 | 15.29738 | 86° | 51km/h | 7793m | -14.7m/s | 0°C | 0% | 0hPa | 0V | 00:00:00 | 00:00:00 | 00:00:00 | |
| 9A1FER-10 | 2026-08-31 01:15:33 | 46.03768 | 15.29534 | 85° | 51km/h | 7935m | -11.9m/s | 0°C | 0% | 0hPa | 0V | 00:00:00 | 00:00:00 | 00:00:00 | |
| 9A1FER-3 | 2026-08-31 01:15:29 | 46.03762 | 15.29461 | 87° | 51km/h | 7985m | -13.1m/s | 0°C | 0% | 0hPa | 0V | 00:00:00 | 00:00:00 | 00:00:00 | |
| 9A1FER-10 | 2026-08-31 01:15:21 | 46.03752 | 15.29251 | 87° | 55km/h | 8127m | -12.6m/s | 0°C | 0% | 0hPa | 0V | 00:00:00 | 00:00:00 | 00:00:00 | |
| 9A1FER-3 | 2026-08-31 01:15:14 | 46.03750 | 15.29176 | 91° | 57km/h | 8180m | -13.4m/s | 0°C | 0% | 0hPa | 0V | 00:00:00 | 00:00:00 | 00:00:00 | |
| 9A1FER-10 | 2026-08-31 01:15:03 | 46.03754 | 15.28951 | 94° | 60km/h | 8326m | -12.4m/s | 0°C | 0% | 0hPa | 0V | 00:00:00 | 00:00:00 | 00:00:00 | |
| 9A1FER-3 | 2026-08-31 01:14:59 | 46.03757 | 15.28865 | 97° | 62km/h | 8377m | -13.1m/s | 0°C | 0% | 0hPa | 0V | 00:00:00 | 00:00:00 | 00:00:00 | |
| 9A1FER-10 | 2026-08-31 01:14:48 | 46.03768 | 15.28619 | 93° | 62km/h | 8528m | -14.1m/s | 0°C | 0% | 0hPa | 0V | 00:00:00 | 00:00:00 | 00:00:00 | |
| 9A1FER-3 | 2026-08-31 01:14:44 | 46.03770 | 15.28526 | 90° | 60km/h | 8581m | -14.1m/s | 0°C | 0% | 0hPa | 0V | 00:00:00 | 00:00:00 | 00:00:00 | |
| 9A1FER-10 | 2026-08-31 01:14:34 | 46.03775 | 15.28281 | 91° | 64km/h | 8737m | -13.9m/s | 0°C | 0% | 0hPa | 0V | 00:00:00 | 00:00:00 | 00:00:00 | |
| 9A1FER-3 | 2026-08-31 01:14:29 | 46.03780 | 15.28194 | 99° | 66km/h | 8790m | -14.2m/s | 0°C | 0% | 0hPa | 0V | 00:00:00 | 00:00:00 | 00:00:00 | |
| 9A1FER-10 | 2026-08-31 01:14:18 | 46.03804 | 15.27938 | 100° | 71km/h | 8934m | -15.2m/s | 0°C | 0% | 0hPa | 0V | 00:00:00 | 00:00:00 | 00:00:00 | |
| 9A1FER-3 | 2026-08-31 01:14:14 | 46.03817 | 15.27842 | 105° | 75km/h | 8989m | -14.9m/s | 0°C | 0% | 0hPa | 0V | 00:00:00 | 00:00:00 | 00:00:00 | |
| 9A1FER-10 | 2026-08-31 01:14:03 | 46.03866 | 15.27560 | 106° | 77km/h | 9122m | -12.6m/s | 0°C | 0% | 0hPa | 0V | 00:00:00 | 00:00:00 | 00:00:00 | |
| 9A1FER-3 | 2026-08-31 01:13:59 | 46.03887 | 15.27453 | 108° | 77km/h | 9176m | -14.3m/s | 0°C | 0% | 0hPa | 0V | 00:00:00 | 00:00:00 | 00:00:00 | |
| 9A1FER-10 | 2026-08-31 01:13:48 | 46.03948 | 15.27152 | 104° | 75km/h | 9322m | -14.6m/s | 0°C | 0% | 0hPa | 0V | 00:00:00 | 00:00:00 | 00:00:00 | |
| 9A1FER-3 | 2026-08-31 01:13:38 | 46.03997 | 15.26884 | 105° | 78km/h | 9455m | -15.3m/s | 0°C | 0% | 0hPa | 0V | 00:00:00 | 00:00:00 | 00:00:00 | |
| 9A1FER-10 | 2026-08-31 01:13:33 | 46.04021 | 15.26749 | 106° | 78km/h | 9529m | -14.9m/s | 0°C | 0% | 0hPa | 0V | 00:00:00 | 00:00:00 | 00:00:00 | |
| 9A1FER-3 | 2026-08-31 01:13:19 | 46.04089 | 15.26355 | 106° | 75km/h | 9723m | -15.3m/s | 0°C | 0% | 0hPa | 0V | 00:00:00 | 00:00:00 | 00:00:00 | |
| 9A1FER-10 | 2026-08-31 01:13:18 | 46.04094 | 15.26328 | 106° | 75km/h | 9737m | -13.9m/s | 0°C | 0% | 0hPa | 0V | 00:00:00 | 00:00:00 | 00:00:00 | |
| 9A1FER-3 | 2026-08-31 01:13:04 | 46.04164 | 15.25960 | 107° | 71km/h | 9895m | -14.6m/s | 0°C | 0% | 0hPa | 0V | 00:00:00 | 00:00:00 | 00:00:00 | |
| 9A1FER-10 | 2026-08-31 01:13:02 | 46.04175 | 15.25908 | 108° | 71km/h | 9923m | -13.9m/s | 0°C | 0% | 0hPa | 0V | 00:00:00 | 00:00:00 | 00:00:00 | |
| 9A1FER-3 | 2026-08-31 01:12:49 | 46.04246 | 15.25583 | 108° | 68km/h | 10080m | -12.5m/s | 0°C | 0% | 0hPa | 0V | 00:00:00 | 00:00:00 | 00:00:00 | |
| 9A1FER-10 | 2026-08-31 01:12:47 | 46.04257 | 15.25534 | 106° | 68km/h | 10104m | -13.8m/s | 0°C | 0% | 0hPa | 0V | 00:00:00 | 00:00:00 | 00:00:00 | |
| 9A1FER-3 | 2026-08-31 01:12:34 | 46.04323 | 15.25224 | 108° | 68km/h | 10272m | -11.0m/s | 0°C | 0% | 0hPa | 0V | 00:00:00 | 00:00:00 | 00:00:00 | |
| 9A1FER-10 | 2026-08-31 01:12:32 | 46.04333 | 15.25176 | 108° | 68km/h | 10295m | -12.1m/s | 0°C | 0% | 0hPa | 0V | 00:00:00 | 00:00:00 | 00:00:00 | |
| 9A1FER-3 | 2026-08-31 01:12:19 | 46.04404 | 15.24872 | 109° | 69km/h | 10474m | -14.7m/s | 0°C | 0% | 0hPa | 0V | 00:00:00 | 00:00:00 | 00:00:00 | |
| 9A1FER-10 | 2026-08-31 01:12:17 | 46.04416 | 15.24826 | 107° | 69km/h | 10503m | -13.1m/s | 0°C | 0% | 0hPa | 0V | 00:00:00 | 00:00:00 | 00:00:00 | |
| 9A1FER-3 | 2026-08-31 01:12:04 | 46.04487 | 15.24522 | 115° | 77km/h | 10680m | -13.1m/s | 0°C | 0% | 0hPa | 0V | 00:00:00 | 00:00:00 | 00:00:00 | |
| 9A1FER-10 | 2026-08-31 01:12:02 | 46.04517 | 15.24472 | 113° | 77km/h | 10706m | -14.8m/s | 0°C | 0% | 0hPa | 0V | 00:00:00 | 00:00:00 | 00:00:00 | |
| 9A1FER-3 | 2026-08-31 01:11:49 | 46.04606 | 15.24133 | 113° | 86km/h | 10892m | -15.8m/s | 0°C | 0% | 0hPa | 0V | 00:00:00 | 00:00:00 | 00:00:00 | |
| 9A1FER-10 | 2026-08-31 01:11:47 | 46.04622 | 15.24078 | 116° | 86km/h | 10921m | -14.5m/s | 0°C | 0% | 0hPa | 0V | 00:00:00 | 00:00:00 | 00:00:00 | |
| 9A1FER-3 | 2026-08-31 01:11:34 | 46.04747 | 15.23714 | 117° | 91km/h | 11112m | -14.5m/s | 0°C | 0% | 0hPa | 0V | 00:00:00 | 00:00:00 | 00:00:00 | |
| 9A1FER-10 | 2026-08-31 01:11:32 | 46.04766 | 15.23658 | 116° | 91km/h | 11141m | -14.8m/s | 0°C | 0% | 0hPa | 0V | 00:00:00 | 00:00:00 | 00:00:00 | |
| 9A1FER-3 | 2026-08-31 01:11:19 | 46.04898 | 15.23269 | 118° | 91km/h | 11332m | -15.5m/s | 0°C | 0% | 0hPa | 0V | 00:00:00 | 00:00:00 | 00:00:00 | |
| 9A1FER-10 | 2026-08-31 01:11:17 | 46.04919 | 15.23208 | 118° | 91km/h | 11361m | -15.1m/s | 0°C | 0% | 0hPa | 0V | 00:00:00 | 00:00:00 | 00:00:00 | |
| 9A1FER-3 | 2026-08-31 01:11:04 | 46.05055 | 15.22823 | 116° | 95km/h | 11563m | -16.4m/s | 0°C | 0% | 0hPa | 0V | 00:00:00 | 00:00:00 | 00:00:00 | |
| 9A1FER-10 | 2026-08-31 01:11:02 | 46.05075 | 15.22761 | 115° | 97km/h | 11593m | -15.6m/s | 0°C | 0% | 0hPa | 0V | 00:00:00 | 00:00:00 | 00:00:00 | |
| 9A1FER-3 | 2026-08-31 01:10:49 | 46.05210 | 15.22353 | 118° | 97km/h | 11800m | -16.4m/s | 0°C | 0% | 0hPa | 0V | 00:00:00 | 00:00:00 | 00:00:00 | |
| 9A1FER-10 | 2026-08-31 01:10:47 | 46.05231 | 15.22288 | 117° | 97km/h | 11829m | -15.6m/s | 0°C | 0% | 0hPa | 0V | 00:00:00 | 00:00:00 | 00:00:00 | |
| 9A1FER-3 | 2026-08-31 01:10:34 | 46.05369 | 15.21878 | 117° | 99km/h | 12039m | -17.4m/s | 0°C | 0% | 0hPa | 0V | 00:00:00 | 00:00:00 | 00:00:00 | |
| 9A1FER-10 | 2026-08-31 01:10:32 | 46.05400 | 15.21783 | 115° | 99km/h | 12082m | -12.6m/s | 0°C | 0% | 0hPa | 0V | 00:00:00 | 00:00:00 | 00:00:00 | |
| 9A1FER-3 | 2026-08-31 01:10:19 | 46.05531 | 15.21399 | 118° | 91km/h | 12283m | -16.5m/s | 0°C | 0% | 0hPa | 0V | 00:00:00 | 00:00:00 | 00:00:00 | |
| 9A1FER-10 | 2026-08-31 01:10:16 | 46.05562 | 15.21306 | 114° | 89km/h | 12331m | -16.9m/s | 0°C | 0% | 0hPa | 0V | 00:00:00 | 00:00:00 | 00:00:00 | |
| 9A1FER-3 | 2026-08-31 01:10:04 | 46.05663 | 15.20945 | 112° | 88km/h | 12531m | -16.7m/s | 0°C | 0% | 0hPa | 0V | 00:00:00 | 00:00:00 | 00:00:00 | |
| 9A1FER-10 | 2026-08-31 01:10:01 | 46.05687 | 15.20854 | 110° | 88km/h | 12579m | -15.1m/s | 0°C | 0% | 0hPa | 0V | 00:00:00 | 00:00:00 | 00:00:00 | |
| 9A1FER-3 | 2026-08-31 01:09:49 | 46.05768 | 15.20497 | 107° | 88km/h | 12776m | -15.4m/s | 0°C | 0% | 0hPa | 0V | 00:00:00 | 00:00:00 | 00:00:00 | |
| 9A1FER-10 | 2026-08-31 01:09:46 | 46.05786 | 15.20408 | 107° | 89km/h | 12818m | -16.7m/s | 0°C | 0% | 0hPa | 0V | 00:00:00 | 00:00:00 | 00:00:00 | |
| 9A1FER-3 | 2026-08-31 01:09:34 | 46.05858 | 15.20037 | 106° | 95km/h | 13013m | -18.8m/s | 0°C | 0% | 0hPa | 0V | 00:00:00 | 00:00:00 | 00:00:00 | |
| 9A1FER-10 | 2026-08-31 01:09:31 | 46.05878 | 15.19939 | 108° | 95km/h | 13064m | -20.5m/s | 0°C | 0% | 0hPa | 0V | 00:00:00 | 00:00:00 | 00:00:00 | |
| 9A1FER-3 | 2026-08-31 01:09:19 | 46.05975 | 15.19551 | 110° | 95km/h | 13280m | -18.8m/s | 0°C | 0% | 0hPa | 0V | 00:00:00 | 00:00:00 | 00:00:00 | |
| 9A1FER-10 | 2026-08-31 01:09:16 | 46.05999 | 15.19455 | 110° | 95km/h | 13336m | -18.5m/s | 0°C | 0% | 0hPa | 0V | 00:00:00 | 00:00:00 | 00:00:00 | |
| 9A1FER-3 | 2026-08-31 01:09:04 | 46.06112 | 15.19076 | 114° | 91km/h | 13564m | -18.2m/s | 0°C | 0% | 0hPa | 0V | 00:00:00 | 00:00:00 | 00:00:00 | |
| 9A1FER-10 | 2026-08-31 01:09:00 | 46.06152 | 15.18951 | 115° | 88km/h | 13637m | -18.1m/s | 0°C | 0% | 0hPa | 0V | 00:00:00 | 00:00:00 | 00:00:00 | |
| 9A1FER-3 | 2026-08-31 01:08:47 | 46.06250 | 15.18561 | 109° | 73km/h | 13868m | -16.6m/s | 0°C | 0% | 0hPa | 0V | 00:00:00 | 00:00:00 | 00:00:00 | |
| 9A1FER-10 | 2026-08-31 01:08:45 | 46.06262 | 15.18502 | 106° | 69km/h | 13903m | -19.0m/s | 0°C | 0% | 0hPa | 0V | 00:00:00 | 00:00:00 | 00:00:00 | |
| 9A1FER-3 | 2026-08-31 01:08:32 | 46.06326 | 15.18183 | 103° | 57km/h | 14136m | -18.3m/s | 0°C | 0% | 0hPa | 0V | 00:00:00 | 00:00:00 | 00:00:00 | |
| 9A1FER-10 | 2026-08-31 01:08:30 | 46.06332 | 15.18144 | 101° | 58km/h | 14173m | -18.6m/s | 0°C | 0% | 0hPa | 0V | 00:00:00 | 00:00:00 | 00:00:00 | |
| 9A1FER-10 | 2026-08-31 01:08:15 | 46.06350 | 15.17823 | 94° | 71km/h | 14445m | -18.2m/s | 0°C | 0% | 0hPa | 0V | 00:00:00 | 00:00:00 | 00:00:00 | |
| 9A1FER-3 | 2026-08-31 01:08:01 | 46.06364 | 15.17462 | 96° | 69km/h | 14684m | -19.0m/s | 0°C | 0% | 0hPa | 0V | 00:00:00 | 00:00:00 | 00:00:00 | |
| 9A1FER-10 | 2026-08-31 01:08:00 | 46.06365 | 15.17436 | 92° | 69km/h | 14704m | -20.6m/s | 0°C | 0% | 0hPa | 0V | 00:00:00 | 00:00:00 | 00:00:00 | |
| 9A1FER-10 | 2026-08-31 01:07:45 | 46.06342 | 15.17063 | 84° | 69km/h | 14983m | -17.5m/s | 0°C | 0% | 0hPa | 0V | 00:00:00 | 00:00:00 | 00:00:00 | |
| 9A1FER-10 | 2026-08-31 01:07:30 | 46.06302 | 15.16681 | 88° | 69km/h | 15263m | -20.4m/s | 0°C | 0% | 0hPa | 0V | 00:00:00 | 00:00:00 | 00:00:00 | |
| 9A1FER-3 | 2026-08-31 01:07:21 | 46.06307 | 15.16447 | 94° | 58km/h | 15447m | -18.6m/s | 0°C | 0% | 0hPa | 0V | 00:00:00 | 00:00:00 | 00:00:00 | |
| 9A1FER-10 | 2026-08-31 01:07:15 | 46.06310 | 15.16307 | 90° | 51km/h | 15565m | -19.4m/s | 0°C | 0% | 0hPa | 0V | 00:00:00 | 00:00:00 | 00:00:00 | |
| 9A1FER-3 | 2026-08-31 01:07:06 | 46.06299 | 15.16134 | 73° | 46km/h | 15737m | -16.7m/s | 0°C | 0% | 0hPa | 0V | 00:00:00 | 00:00:00 | 00:00:00 | |
| 9A1FER-10 | 2026-08-31 01:07:00 | 46.06272 | 15.16045 | 64° | 44km/h | 15844m | -21.0m/s | 0°C | 0% | 0hPa | 0V | 00:00:00 | 00:00:00 | 00:00:00 | |
| OE3JTB-15 | 2026-08-31 01:06:54 | 46.06243 | 15.15957 | 68° | 38km/h | 15949m | -14.1m/s | 0°C | 0% | 0hPa | 0V | 00:00:00 | 00:00:00 | 00:00:00 | |
| 9A1FER-3 | 2026-08-31 01:06:51 | 46.06233 | 15.15909 | 81° | 44km/h | 16000m | -17.1m/s | 0°C | 0% | 0hPa | 0V | 00:00:00 | 00:00:00 | 00:00:00 | |
| 9A1FER-10 | 2026-08-31 01:06:45 | 46.06223 | 15.15817 | 84° | 40km/h | 16110m | -18.8m/s | 0°C | 0% | 0hPa | 0V | 00:00:00 | 00:00:00 | 00:00:00 | |
| 9A1FER-3 | 2026-08-31 01:06:35 | 46.06223 | 15.15660 | 96° | 31km/h | 16301m | -20.9m/s | 0°C | 0% | 0hPa | 0V | 00:00:00 | 00:00:00 | 00:00:00 | |
| 9A1FER-10 | 2026-08-31 01:06:30 | 46.06228 | 15.15599 | 100° | 33km/h | 16402m | -19.2m/s | 0°C | 0% | 0hPa | 0V | 00:00:00 | 00:00:00 | 00:00:00 | |
| 9A1FER-3 | 2026-08-31 01:06:20 | 46.06205 | 15.15498 | 55° | 44km/h | 16596m | -22.1m/s | 0°C | 0% | 0hPa | 0V | 00:00:00 | 00:00:00 | 00:00:00 | |
| 9A1FER-10 | 2026-08-31 01:06:15 | 46.06177 | 15.15439 | 58° | 46km/h | 16694m | -19.2m/s | 0°C | 0% | 0hPa | 0V | 00:00:00 | 00:00:00 | 00:00:00 | |
| 9A1FER-3 | 2026-08-31 01:06:05 | 46.06127 | 15.15288 | 77° | 37km/h | 16897m | -20.0m/s | 0°C | 0% | 0hPa | 0V | 00:00:00 | 00:00:00 | 00:00:00 | |
| 9A1FER-10 | 2026-08-31 01:06:00 | 46.06115 | 15.15215 | 79° | 33km/h | 16997m | -21.1m/s | 0°C | 0% | 0hPa | 0V | 00:00:00 | 00:00:00 | 00:00:00 | |
| 9A1FER-3 | 2026-08-31 01:05:50 | 46.06103 | 15.15099 | 85° | 29km/h | 17211m | -20.1m/s | 0°C | 0% | 0hPa | 0V | 00:00:00 | 00:00:00 | 00:00:00 | |
| 9A1FER-10 | 2026-08-31 01:05:45 | 46.06107 | 15.15042 | 96° | 24km/h | 17311m | -20.0m/s | 0°C | 0% | 0hPa | 0V | 00:00:00 | 00:00:00 | 00:00:00 | |
| 9A1FER-3 | 2026-08-31 01:05:35 | 46.06131 | 15.14954 | 129° | 11km/h | 17510m | -18.6m/s | 0°C | 0% | 0hPa | 0V | 00:00:00 | 00:00:00 | 00:00:00 | |
| 9A1FER-10 | 2026-08-31 01:05:30 | 46.06145 | 15.14936 | 146° | 13km/h | 17600m | -19.2m/s | 0°C | 0% | 0hPa | 0V | 00:00:00 | 00:00:00 | 00:00:00 | |
| 9A1FER-3 | 2026-08-31 01:05:20 | 46.06140 | 15.14919 | 21° | 24km/h | 17791m | -24.2m/s | 0°C | 0% | 0hPa | 0V | 00:00:00 | 00:00:00 | 00:00:00 | |
| 9A1FER-10 | 2026-08-31 01:05:14 | 46.06111 | 15.14904 | 26° | 33km/h | 17941m | -24.7m/s | 0°C | 0% | 0hPa | 0V | 00:00:00 | 00:00:00 | 00:00:00 | |
| 9A1FER-3 | 2026-08-31 01:05:05 | 46.06055 | 15.14839 | 51° | 29km/h | 18149m | -23.0m/s | 0°C | 0% | 0hPa | 0V | 00:00:00 | 00:00:00 | 00:00:00 | |
| 9A1FER-10 | 2026-08-31 01:04:59 | 46.06027 | 15.14778 | 69° | 20km/h | 18280m | -22.6m/s | 0°C | 0% | 0hPa | 0V | 00:00:00 | 00:00:00 | 00:00:00 | |
| 9A1FER-3 | 2026-08-31 01:04:50 | 46.06008 | 15.14712 | 63° | 24km/h | 18482m | -20.7m/s | 0°C | 0% | 0hPa | 0V | 00:00:00 | 00:00:00 | 00:00:00 | |
| 9A1FER-10 | 2026-08-31 01:04:44 | 46.05992 | 15.14685 | 44° | 24km/h | 18605m | -18.7m/s | 0°C | 0% | 0hPa | 0V | 00:00:00 | 00:00:00 | 00:00:00 | |
| 9A1FER-3 | 2026-08-31 01:04:34 | 46.05945 | 15.14625 | 50° | 20km/h | 18813m | -22.5m/s | 0°C | 0% | 0hPa | 0V | 00:00:00 | 00:00:00 | 00:00:00 | |
| 9A1FER-10 | 2026-08-31 01:04:29 | 46.05929 | 15.14587 | 68° | 18km/h | 18922m | -21.8m/s | 0°C | 0% | 0hPa | 0V | 00:00:00 | 00:00:00 | 00:00:00 | |
| 9A1FER-3 | 2026-08-31 01:04:19 | 46.05924 | 15.14523 | 78° | 24km/h | 19140m | -22.0m/s | 0°C | 0% | 0hPa | 0V | 00:00:00 | 00:00:00 | 00:00:00 | |
| 9A1FER-10 | 2026-08-31 01:04:14 | 46.05916 | 15.14494 | 64° | 22km/h | 19249m | -22.5m/s | 0°C | 0% | 0hPa | 0V | 00:00:00 | 00:00:00 | 00:00:00 | |
| 9A1FER-3 | 2026-08-31 01:04:04 | 46.05891 | 15.14414 | 78° | 13km/h | 19472m | -19.1m/s | 0°C | 0% | 0hPa | 0V | 00:00:00 | 00:00:00 | 00:00:00 | |
| 9A1FER-10 | 2026-08-31 01:03:59 | 46.05884 | 15.14382 | 77° | 7km/h | 19566m | -16.5m/s | 0°C | 0% | 0hPa | 0V | 00:00:00 | 00:00:00 | 00:00:00 | |
| 9A1FER-3 | 2026-08-31 01:03:49 | 46.05873 | 15.14363 | 35° | 5km/h | 19761m | -19.2m/s | 0°C | 0% | 0hPa | 0V | 00:00:00 | 00:00:00 | 00:00:00 | |
| 9A1FER-10 | 2026-08-31 01:03:44 | 46.05871 | 15.14358 | 96° | 7km/h | 19864m | -18.6m/s | 0°C | 0% | 0hPa | 0V | 00:00:00 | 00:00:00 | 00:00:00 | |
| 9A1FER-3 | 2026-08-31 01:03:34 | 46.05859 | 15.14351 | 28° | 9km/h | 20050m | -20.0m/s | 0°C | 0% | 0hPa | 0V | 00:00:00 | 00:00:00 | 00:00:00 | |
| 9A1FER-3 | 2026-08-31 01:03:19 | 46.05831 | 15.14333 | 78° | 11km/h | 20350m | -20.6m/s | 0°C | 0% | 0hPa | 0V | 00:00:00 | 00:00:00 | 00:00:00 | |
| 9A1FER-3 | 2026-08-31 01:03:04 | 46.05794 | 15.14336 | 347° | 22km/h | 20657m | -21.8m/s | 0°C | 0% | 0hPa | 0V | 00:00:00 | 00:00:00 | 00:00:00 | |
| 9A1FER-10 | 2026-08-31 01:02:51 | 46.05723 | 15.14331 | 47° | 11km/h | 20925m | -25.5m/s | 0°C | 0% | 0hPa | 0V | 00:00:00 | 00:00:00 | 00:00:00 | |
| 9A1FER-3 | 2026-08-31 01:02:49 | 46.05719 | 15.14322 | 61° | 13km/h | 20970m | -22.1m/s | 0°C | 0% | 0hPa | 0V | 00:00:00 | 00:00:00 | 00:00:00 | |
| 9A1FER-10 | 2026-08-31 01:02:35 | 46.05701 | 15.14265 | 4° | 24km/h | 21258m | -23.4m/s | 0°C | 0% | 0hPa | 0V | 00:00:00 | 00:00:00 | 00:00:00 | |
| 9A1FER-3 | 2026-08-31 01:02:34 | 46.05697 | 15.14265 | 4° | 26km/h | 21282m | -23.9m/s | 0°C | 0% | 0hPa | 0V | 00:00:00 | 00:00:00 | 00:00:00 | |
| 9A1FER-10 | 2026-08-31 01:02:19 | 46.05614 | 15.14196 | 61° | 11km/h | 21609m | -21.9m/s | 0°C | 0% | 0hPa | 0V | 00:00:00 | 00:00:00 | 00:00:00 | |
| 9A1FER-10 | 2026-08-31 01:02:04 | 46.05602 | 15.14137 | 189° | 7km/h | 22031m | -26.6m/s | 0°C | 0% | 0hPa | 0V | 00:00:00 | 00:00:00 | 00:00:00 | |
| 9A1FER-3 | 2026-08-31 01:01:48 | 46.05623 | 15.14166 | 206° | 22km/h | 22476m | -30.5m/s | 0°C | 0% | 0hPa | 0V | 00:00:00 | 00:00:00 | 00:00:00 | |
| 9A1FER-10 | 2026-08-31 01:01:33 | 46.05660 | 15.14261 | 283° | 16km/h | 22955m | -34.1m/s | 0°C | 0% | 0hPa | 0V | 00:00:00 | 00:00:00 | 00:00:00 | |
| 9A1FER-10 | 2026-08-31 01:01:18 | 46.05625 | 15.14296 | 133° | 11km/h | 23465m | -32.3m/s | 0°C | 0% | 0hPa | 0V | 00:00:00 | 00:00:00 | 00:00:00 | |
| 9A1FER-10 | 2026-08-31 01:01:03 | 46.05636 | 15.14341 | 280° | 11km/h | 23963m | -32.2m/s | 0°C | 0% | 0hPa | 0V | 00:00:00 | 00:00:00 | 00:00:00 | |
| 9A1FER-10 | 2026-08-31 01:00:48 | 46.05645 | 15.14397 | 254° | 20km/h | 24363m | -22.0m/s | 0°C | 0% | 0hPa | 0V | 00:00:00 | 00:00:00 | 00:00:00 | |
| 9A1FER-10 | 2026-08-31 01:00:32 | 46.05659 | 15.14509 | 262° | 20km/h | 24702m | -20.2m/s | 0°C | 0% | 0hPa | 0V | 00:00:00 | 00:00:00 | 00:00:00 | |
| 9A1FER-10 | 2026-08-31 01:00:14 | 46.05600 | 15.14562 | 48° | 16km/h | 25145m | -20.9m/s | 0°C | 0% | 0hPa | 0V | 00:00:00 | 00:00:00 | 00:00:00 | |
| 9A1FER-3 | 2026-08-31 00:59:59 | 46.05594 | 15.14625 | 303° | 24km/h | 25516m | -27.5m/s | 0°C | 0% | 0hPa | 0V | 00:00:00 | 00:00:00 | 00:00:00 | |
| 9A1FER-10 | 2026-08-31 00:59:57 | 46.05588 | 15.14638 | 304° | 22km/h | 25566m | -23.5m/s | 0°C | 0% | 0hPa | 0V | 00:00:00 | 00:00:00 | 00:00:00 | |
| 9A1FER-3 | 2026-08-31 00:59:44 | 46.05525 | 15.14685 | 355° | 15km/h | 25812m | -13.7m/s | 0°C | 0% | 0hPa | 0V | 00:00:00 | 00:00:00 | 00:00:00 | |
| 9A1FER-10 | 2026-08-31 00:59:39 | 46.05507 | 15.14684 | 9° | 15km/h | 25906m | -16.9m/s | 0°C | 0% | 0hPa | 0V | 00:00:00 | 00:00:00 | 00:00:00 | |
| 9A1FER-3 | 2026-08-31 00:59:29 | 46.05476 | 15.14669 | 17° | 18km/h | 25894m | 5.3m/s | 0°C | 0% | 0hPa | 0V | 00:00:00 | 00:00:00 | 00:00:00 | |
| 9A1FER-10 | 2026-08-31 00:59:24 | 46.05459 | 15.14683 | 346° | 24km/h | 25867m | 4.2m/s | 0°C | 0% | 0hPa | 0V | 00:00:00 | 00:00:00 | 00:00:00 | |
| 9A1FER-3 | 2026-08-31 00:59:14 | 46.05408 | 15.14684 | 338° | 27km/h | 25816m | 6.1m/s | 0°C | 0% | 0hPa | 0V | 00:00:00 | 00:00:00 | 00:00:00 | |
| HA6NAB-11 | 2026-08-31 00:59:10 | 46.05379 | 15.14699 | 355° | 26km/h | 25792m | 4.9m/s | 0°C | 0% | 0hPa | 0V | 00:00:00 | 00:00:00 | 00:00:00 | |
| 9A1FER-10 | 2026-08-31 00:59:09 | 46.05372 | 15.14699 | 360° | 26km/h | 25787m | 6.1m/s | 0°C | 0% | 0hPa | 0V | 00:00:00 | 00:00:00 | 00:00:00 | |
| HA6NAB-11 | 2026-08-31 00:59:04 | 46.05349 | 15.14703 | 324° | 24km/h | 25760m | 6.1m/s | 0°C | 0% | 0hPa | 0V | 00:00:00 | 00:00:00 | 00:00:00 | |
| 9A1FER-3 | 2026-08-31 00:58:59 | 46.05315 | 15.14733 | 346° | 24km/h | 25733m | 3.8m/s | 0°C | 0% | 0hPa | 0V | 00:00:00 | 00:00:00 | 00:00:00 | |
| HA6NAB-11 | 2026-08-31 00:58:58 | 46.05309 | 15.14735 | 354° | 24km/h | 25728m | 6.0m/s | 0°C | 0% | 0hPa | 0V | 00:00:00 | 00:00:00 | 00:00:00 | |
| 9A1FER-10 | 2026-08-31 00:58:54 | 46.05287 | 15.14741 | 328° | 24km/h | 25706m | 6.4m/s | 0°C | 0% | 0hPa | 0V | 00:00:00 | 00:00:00 | 00:00:00 | |
| HA6NAB-11 | 2026-08-31 00:58:52 | 46.05282 | 15.14751 | 302° | 24km/h | 25696m | 5.1m/s | 0°C | 0% | 0hPa | 0V | 00:00:00 | 00:00:00 | 00:00:00 | |
| HA6NAB-11 | 2026-08-31 00:58:47 | 46.05255 | 15.14790 | 359° | 15km/h | 25663m | 5.4m/s | 0°C | 0% | 0hPa | 0V | 00:00:00 | 00:00:00 | 00:00:00 | |
| 9A1FER-3 | 2026-08-31 00:58:44 | 46.05246 | 15.14791 | 345° | 24km/h | 25652m | 4.4m/s | 0°C | 0% | 0hPa | 0V | 00:00:00 | 00:00:00 | 00:00:00 | |
| HA6NAB-11 | 2026-08-31 00:58:40 | 46.05236 | 15.14816 | 286° | 33km/h | 25630m | 5.6m/s | 0°C | 0% | 0hPa | 0V | 00:00:00 | 00:00:00 | 00:00:00 | |
| 9A1FER-10 | 2026-08-31 00:58:38 | 46.05228 | 15.14838 | 305° | 24km/h | 25620m | 4.3m/s | 0°C | 0% | 0hPa | 0V | 00:00:00 | 00:00:00 | 00:00:00 | |
| 9A1FER-3 | 2026-08-31 00:58:29 | 46.05202 | 15.14898 | 282° | 24km/h | 25570m | 4.4m/s | 0°C | 0% | 0hPa | 0V | 00:00:00 | 00:00:00 | 00:00:00 | |
| 9A1FER-10 | 2026-08-31 00:58:22 | 46.05180 | 15.14945 | 276° | 26km/h | 25533m | 5.9m/s | 0°C | 0% | 0hPa | 0V | 00:00:00 | 00:00:00 | 00:00:00 | |
| 9A1FER-3 | 2026-08-31 00:58:14 | 46.05169 | 15.15012 | 294° | 24km/h | 25491m | 4.3m/s | 0°C | 0% | 0hPa | 0V | 00:00:00 | 00:00:00 | 00:00:00 | |
| 9A1FER-10 | 2026-08-31 00:58:07 | 46.05177 | 15.15074 | 262° | 16km/h | 25453m | 5.9m/s | 0°C | 0% | 0hPa | 0V | 00:00:00 | 00:00:00 | 00:00:00 | |
| 9A1FER-3 | 2026-08-31 00:57:59 | 46.05181 | 15.15132 | 238° | 13km/h | 25410m | 4.0m/s | 0°C | 0% | 0hPa | 0V | 00:00:00 | 00:00:00 | 00:00:00 | |
| 9A1FER-10 | 2026-08-31 00:57:51 | 46.05189 | 15.15167 | 246° | 9km/h | 25369m | 6.6m/s | 0°C | 0% | 0hPa | 0V | 00:00:00 | 00:00:00 | 00:00:00 | |
| 9A1FER-3 | 2026-08-31 00:57:44 | 46.05192 | 15.15196 | 301° | 7km/h | 25331m | 4.3m/s | 0°C | 0% | 0hPa | 0V | 00:00:00 | 00:00:00 | 00:00:00 | |
| 9A1FER-10 | 2026-08-31 00:57:36 | 46.05197 | 15.15210 | 281° | 7km/h | 25289m | 5.8m/s | 0°C | 0% | 0hPa | 0V | 00:00:00 | 00:00:00 | 00:00:00 | |
| 9A1FER-3 | 2026-08-31 00:57:29 | 46.05195 | 15.15210 | 159° | 7km/h | 25251m | 4.7m/s | 0°C | 0% | 0hPa | 0V | 00:00:00 | 00:00:00 | 00:00:00 | |
| 9A1FER-10 | 2026-08-31 00:57:21 | 46.05192 | 15.15208 | 70° | 9km/h | 25207m | 5.1m/s | 0°C | 0% | 0hPa | 0V | 00:00:00 | 00:00:00 | 00:00:00 | |
| 9A1FER-3 | 2026-08-31 00:57:14 | 46.05185 | 15.15197 | 34° | 13km/h | 25170m | 5.9m/s | 0°C | 0% | 0hPa | 0V | 00:00:00 | 00:00:00 | 00:00:00 | |
| 9A1FER-10 | 2026-08-31 00:57:06 | 46.05172 | 15.15177 | 348° | 22km/h | 25130m | 3.7m/s | 0°C | 0% | 0hPa | 0V | 00:00:00 | 00:00:00 | 00:00:00 | |
| 9A1FER-3 | 2026-08-31 00:56:59 | 46.05132 | 15.15161 | 38° | 20km/h | 25094m | 5.7m/s | 0°C | 0% | 0hPa | 0V | 00:00:00 | 00:00:00 | 00:00:00 | |
| 9A1FER-10 | 2026-08-31 00:56:51 | 46.05096 | 15.15179 | 355° | 24km/h | 25052m | 4.4m/s | 0°C | 0% | 0hPa | 0V | 00:00:00 | 00:00:00 | 00:00:00 | |
| 9A1FER-3 | 2026-08-31 00:56:44 | 46.05059 | 15.15201 | 326° | 24km/h | 25014m | 5.8m/s | 0°C | 0% | 0hPa | 0V | 00:00:00 | 00:00:00 | 00:00:00 | |
| 9A1FER-10 | 2026-08-31 00:56:36 | 46.05014 | 15.15231 | 326° | 20km/h | 24973m | 4.3m/s | 0°C | 0% | 0hPa | 0V | 00:00:00 | 00:00:00 | 00:00:00 | |
| 9A1FER-3 | 2026-08-31 00:56:28 | 46.04979 | 15.15271 | 332° | 20km/h | 24930m | 5.7m/s | 0°C | 0% | 0hPa | 0V | 00:00:00 | 00:00:00 | 00:00:00 | |
| 9A1FER-10 | 2026-08-31 00:56:21 | 46.04955 | 15.15306 | 299° | 20km/h | 24892m | 5.6m/s | 0°C | 0% | 0hPa | 0V | 00:00:00 | 00:00:00 | 00:00:00 | |
| 9A1FER-3 | 2026-08-31 00:56:12 | 46.04936 | 15.15365 | 275° | 22km/h | 24845m | 5.3m/s | 0°C | 0% | 0hPa | 0V | 00:00:00 | 00:00:00 | 00:00:00 | |
| 9A1FER-10 | 2026-08-31 00:56:06 | 46.04929 | 15.15405 | 304° | 24km/h | 24814m | 5.3m/s | 0°C | 0% | 0hPa | 0V | 00:00:00 | 00:00:00 | 00:00:00 | |
| 9A1FER-3 | 2026-08-31 00:55:57 | 46.04927 | 15.15480 | 266° | 24km/h | 24767m | 4.4m/s | 0°C | 0% | 0hPa | 0V | 00:00:00 | 00:00:00 | 00:00:00 | |
| 9A1FER-10 | 2026-08-31 00:55:51 | 46.04927 | 15.15532 | 239° | 22km/h | 24737m | 3.5m/s | 0°C | 0% | 0hPa | 0V | 00:00:00 | 00:00:00 | 00:00:00 | |
| 9A1FER-3 | 2026-08-31 00:55:42 | 46.04930 | 15.15601 | 282° | 20km/h | 24690m | 4.5m/s | 0°C | 0% | 0hPa | 0V | 00:00:00 | 00:00:00 | 00:00:00 | |
| 9A1FER-10 | 2026-08-31 00:55:36 | 46.04943 | 15.15641 | 267° | 20km/h | 24658m | 4.6m/s | 0°C | 0% | 0hPa | 0V | 00:00:00 | 00:00:00 | 00:00:00 | |
| 9A1FER-3 | 2026-08-31 00:55:26 | 46.04949 | 15.15711 | 246° | 20km/h | 24604m | 4.4m/s | 0°C | 0% | 0hPa | 0V | 00:00:00 | 00:00:00 | 00:00:00 | |
| 9A1FER-10 | 2026-08-31 00:55:21 | 46.04958 | 15.15752 | 284° | 18km/h | 24577m | 5.0m/s | 0°C | 0% | 0hPa | 0V | 00:00:00 | 00:00:00 | 00:00:00 | |
| 9A1FER-3 | 2026-08-31 00:55:11 | 46.04965 | 15.15809 | 263° | 16km/h | 24527m | 5.9m/s | 0°C | 0% | 0hPa | 0V | 00:00:00 | 00:00:00 | 00:00:00 | |
| 9A1FER-10 | 2026-08-31 00:55:06 | 46.04960 | 15.15841 | 233° | 13km/h | 24501m | 4.6m/s | 0°C | 0% | 0hPa | 0V | 00:00:00 | 00:00:00 | 00:00:00 | |
| 9A1FER-3 | 2026-08-31 00:54:56 | 46.04978 | 15.15882 | 233° | 13km/h | 24447m | 6.3m/s | 0°C | 0% | 0hPa | 0V | 00:00:00 | 00:00:00 | 00:00:00 | |
| 9A1FER-10 | 2026-08-31 00:54:51 | 46.04986 | 15.15902 | 251° | 13km/h | 24421m | 5.6m/s | 0°C | 0% | 0hPa | 0V | 00:00:00 | 00:00:00 | 00:00:00 | |
| 9A1FER-3 | 2026-08-31 00:54:41 | 46.04997 | 15.15939 | 260° | 15km/h | 24368m | 6.0m/s | 0°C | 0% | 0hPa | 0V | 00:00:00 | 00:00:00 | 00:00:00 | |
| 9A1FER-10 | 2026-08-31 00:54:36 | 46.05003 | 15.15963 | 256° | 15km/h | 24341m | 6.0m/s | 0°C | 0% | 0hPa | 0V | 00:00:00 | 00:00:00 | 00:00:00 | |
| 9A1FER-3 | 2026-08-31 00:54:26 | 46.05006 | 15.16007 | 210° | 13km/h | 24288m | 4.0m/s | 0°C | 0% | 0hPa | 0V | 00:00:00 | 00:00:00 | 00:00:00 | |
| 9A1FER-10 | 2026-08-31 00:54:21 | 46.05006 | 15.16039 | 269° | 13km/h | 24263m | 5.4m/s | 0°C | 0% | 0hPa | 0V | 00:00:00 | 00:00:00 | 00:00:00 | |
| 9A1FER-3 | 2026-08-31 00:54:11 | 46.05006 | 15.16075 | 288° | 11km/h | 24211m | 4.6m/s | 0°C | 0% | 0hPa | 0V | 00:00:00 | 00:00:00 | 00:00:00 | |
| 9A1FER-10 | 2026-08-31 00:54:06 | 46.05009 | 15.16082 | 90° | 9km/h | 24184m | 5.3m/s | 0°C | 0% | 0hPa | 0V | 00:00:00 | 00:00:00 | 00:00:00 | |
| 9A1FER-3 | 2026-08-31 00:53:56 | 46.05015 | 15.16091 | 99° | 9km/h | 24130m | 6.6m/s | 0°C | 0% | 0hPa | 0V | 00:00:00 | 00:00:00 | 00:00:00 | |
| 9A1FER-10 | 2026-08-31 00:53:51 | 46.05010 | 15.16093 | 283° | 11km/h | 24103m | 4.7m/s | 0°C | 0% | 0hPa | 0V | 00:00:00 | 00:00:00 | 00:00:00 | |
| 9A1FER-3 | 2026-08-31 00:53:41 | 46.04996 | 15.16123 | 295° | 13km/h | 24050m | 5.3m/s | 0°C | 0% | 0hPa | 0V | 00:00:00 | 00:00:00 | 00:00:00 | |
| 9A1FER-10 | 2026-08-31 00:53:36 | 46.04986 | 15.16141 | 324° | 15km/h | 24025m | 4.2m/s | 0°C | 0% | 0hPa | 0V | 00:00:00 | 00:00:00 | 00:00:00 | |
| 9A1FER-3 | 2026-08-31 00:53:27 | 46.04966 | 15.16171 | 312° | 18km/h | 23971m | 5.0m/s | 0°C | 0% | 0hPa | 0V | 00:00:00 | 00:00:00 | 00:00:00 | |
| 9A1FER-10 | 2026-08-31 00:53:21 | 46.04961 | 15.16207 | 294° | 16km/h | 23944m | 5.4m/s | 0°C | 0% | 0hPa | 0V | 00:00:00 | 00:00:00 | 00:00:00 | |
| 9A1FER-3 | 2026-08-31 00:53:11 | 46.04948 | 15.16273 | 267° | 16km/h | 23893m | 4.0m/s | 0°C | 0% | 0hPa | 0V | 00:00:00 | 00:00:00 | 00:00:00 | |
| 9A1FER-10 | 2026-08-31 00:53:06 | 46.04948 | 15.16289 | 254° | 18km/h | 23867m | 5.9m/s | 0°C | 0% | 0hPa | 0V | 00:00:00 | 00:00:00 | 00:00:00 | |
| 9A1FER-3 | 2026-08-31 00:52:56 | 46.04965 | 15.16349 | 282° | 16km/h | 23813m | 4.5m/s | 0°C | 0% | 0hPa | 0V | 00:00:00 | 00:00:00 | 00:00:00 | |
| 9A1FER-10 | 2026-08-31 00:52:51 | 46.04974 | 15.16382 | 237° | 16km/h | 23787m | 5.2m/s | 0°C | 0% | 0hPa | 0V | 00:00:00 | 00:00:00 | 00:00:00 | |
| 9A1FER-3 | 2026-08-31 00:52:41 | 46.05001 | 15.16419 | 196° | 15km/h | 23737m | 4.4m/s | 0°C | 0% | 0hPa | 0V | 00:00:00 | 00:00:00 | 00:00:00 | |
| 9A1FER-10 | 2026-08-31 00:52:36 | 46.05019 | 15.16434 | 230° | 13km/h | 23710m | 3.9m/s | 0°C | 0% | 0hPa | 0V | 00:00:00 | 00:00:00 | 00:00:00 | |
| 9A1FER-3 | 2026-08-31 00:52:26 | 46.05050 | 15.16447 | 220° | 11km/h | 23656m | 5.1m/s | 0°C | 0% | 0hPa | 0V | 00:00:00 | 00:00:00 | 00:00:00 | |
| 9A1FER-10 | 2026-08-31 00:52:21 | 46.05060 | 15.16443 | 134° | 9km/h | 23631m | 5.7m/s | 0°C | 0% | 0hPa | 0V | 00:00:00 | 00:00:00 | 00:00:00 | |
| 9A1FER-3 | 2026-08-31 00:52:11 | 46.05079 | 15.16425 | 87° | 7km/h | 23578m | 5.7m/s | 0°C | 0% | 0hPa | 0V | 00:00:00 | 00:00:00 | 00:00:00 | |
| 9A1FER-10 | 2026-08-31 00:52:06 | 46.05079 | 15.16414 | 71° | 7km/h | 23552m | 4.9m/s | 0°C | 0% | 0hPa | 0V | 00:00:00 | 00:00:00 | 00:00:00 | |
| 9A1FER-3 | 2026-08-31 00:51:57 | 46.05071 | 15.16396 | 41° | 9km/h | 23499m | 5.8m/s | 0°C | 0% | 0hPa | 0V | 00:00:00 | 00:00:00 | 00:00:00 | |
| 9A1FER-10 | 2026-08-31 00:51:51 | 46.05060 | 15.16393 | 2° | 11km/h | 23475m | 5.8m/s | 0°C | 0% | 0hPa | 0V | 00:00:00 | 00:00:00 | 00:00:00 | |
| 9A1FER-3 | 2026-08-31 00:51:41 | 46.05038 | 15.16390 | 315° | 15km/h | 23424m | 5.3m/s | 0°C | 0% | 0hPa | 0V | 00:00:00 | 00:00:00 | 00:00:00 | |
| 9A1FER-10 | 2026-08-31 00:51:37 | 46.05023 | 15.16387 | 11° | 18km/h | 23399m | 5.8m/s | 0°C | 0% | 0hPa | 0V | 00:00:00 | 00:00:00 | 00:00:00 | |
| 9A1FER-3 | 2026-08-31 00:51:26 | 46.04985 | 15.16392 | 8° | 18km/h | 23349m | 4.8m/s | 0°C | 0% | 0hPa | 0V | 00:00:00 | 00:00:00 | 00:00:00 | |
| 9A1FER-10 | 2026-08-31 00:51:21 | 46.04960 | 15.16400 | 336° | 20km/h | 23325m | 6.3m/s | 0°C | 0% | 0hPa | 0V | 00:00:00 | 00:00:00 | 00:00:00 | |
| 9A1FER-3 | 2026-08-31 00:51:11 | 46.04919 | 15.16432 | 323° | 22km/h | 23274m | 3.8m/s | 0°C | 0% | 0hPa | 0V | 00:00:00 | 00:00:00 | 00:00:00 | |
| 9A1FER-10 | 2026-08-31 00:51:06 | 46.04902 | 15.16460 | 322° | 20km/h | 23248m | 4.6m/s | 0°C | 0% | 0hPa | 0V | 00:00:00 | 00:00:00 | 00:00:00 | |
| 9A1FER-3 | 2026-08-31 00:50:56 | 46.04874 | 15.16528 | 300° | 26km/h | 23197m | 5.2m/s | 0°C | 0% | 0hPa | 0V | 00:00:00 | 00:00:00 | 00:00:00 | |
| 9A1FER-10 | 2026-08-31 00:50:51 | 46.04866 | 15.16559 | 276° | 31km/h | 23172m | 4.1m/s | 0°C | 0% | 0hPa | 0V | 00:00:00 | 00:00:00 | 00:00:00 | |
| 9A1FER-3 | 2026-08-31 00:50:41 | 46.04842 | 15.16662 | 262° | 31km/h | 23121m | 4.8m/s | 0°C | 0% | 0hPa | 0V | 00:00:00 | 00:00:00 | 00:00:00 | |
| 9A1FER-10 | 2026-08-31 00:50:36 | 46.04833 | 15.16721 | 289° | 27km/h | 23097m | 5.1m/s | 0°C | 0% | 0hPa | 0V | 00:00:00 | 00:00:00 | 00:00:00 | |
| 9A1FER-3 | 2026-08-31 00:50:26 | 46.04831 | 15.16822 | 293° | 26km/h | 23045m | 4.5m/s | 0°C | 0% | 0hPa | 0V | 00:00:00 | 00:00:00 | 00:00:00 | |
| 9A1FER-10 | 2026-08-31 00:50:22 | 46.04834 | 15.16867 | 250° | 26km/h | 23020m | 3.8m/s | 0°C | 0% | 0hPa | 0V | 00:00:00 | 00:00:00 | 00:00:00 | |
| 9A1FER-3 | 2026-08-31 00:50:11 | 46.04844 | 15.16959 | 256° | 22km/h | 22968m | 5.2m/s | 0°C | 0% | 0hPa | 0V | 00:00:00 | 00:00:00 | 00:00:00 | |
| 9A1FER-10 | 2026-08-31 00:50:06 | 46.04856 | 15.16994 | 272° | 22km/h | 22944m | 5.3m/s | 0°C | 0% | 0hPa | 0V | 00:00:00 | 00:00:00 | 00:00:00 | |
| 9A1FER-3 | 2026-08-31 00:49:56 | 46.04865 | 15.17069 | 237° | 20km/h | 22892m | 5.4m/s | 0°C | 0% | 0hPa | 0V | 00:00:00 | 00:00:00 | 00:00:00 | |
| 9A1FER-10 | 2026-08-31 00:49:51 | 46.04871 | 15.17103 | 243° | 20km/h | 22865m | 6.1m/s | 0°C | 0% | 0hPa | 0V | 00:00:00 | 00:00:00 | 00:00:00 | |
| 9A1FER-3 | 2026-08-31 00:49:41 | 46.04896 | 15.17158 | 261° | 20km/h | 22814m | 6.2m/s | 0°C | 0% | 0hPa | 0V | 00:00:00 | 00:00:00 | 00:00:00 | |
| 9A1FER-10 | 2026-08-31 00:49:36 | 46.04914 | 15.17182 | 238° | 20km/h | 22788m | 4.7m/s | 0°C | 0% | 0hPa | 0V | 00:00:00 | 00:00:00 | 00:00:00 | |
| 9A1FER-3 | 2026-08-31 00:49:27 | 46.04946 | 15.17236 | 244° | 22km/h | 22735m | 4.3m/s | 0°C | 0% | 0hPa | 0V | 00:00:00 | 00:00:00 | 00:00:00 | |
| 9A1FER-10 | 2026-08-31 00:49:21 | 46.04960 | 15.17269 | 228° | 22km/h | 22710m | 5.7m/s | 0°C | 0% | 0hPa | 0V | 00:00:00 | 00:00:00 | 00:00:00 | |
| 9A1FER-3 | 2026-08-31 00:49:11 | 46.05001 | 15.17317 | 230° | 20km/h | 22659m | 6.3m/s | 0°C | 0% | 0hPa | 0V | 00:00:00 | 00:00:00 | 00:00:00 | |
| 9A1FER-10 | 2026-08-31 00:49:06 | 46.05026 | 15.17335 | 203° | 16km/h | 22633m | 5.4m/s | 0°C | 0% | 0hPa | 0V | 00:00:00 | 00:00:00 | 00:00:00 | |
| 9A1FER-3 | 2026-08-31 00:48:56 | 46.05065 | 15.17365 | 162° | 13km/h | 22581m | 4.1m/s | 0°C | 0% | 0hPa | 0V | 00:00:00 | 00:00:00 | 00:00:00 | |
| 9A1FER-10 | 2026-08-31 00:48:51 | 46.05079 | 15.17370 | 226° | 11km/h | 22558m | 5.7m/s | 0°C | 0% | 0hPa | 0V | 00:00:00 | 00:00:00 | 00:00:00 | |
| 9A1FER-3 | 2026-08-31 00:48:41 | 46.05107 | 15.17368 | 232° | 9km/h | 22508m | 3.7m/s | 0°C | 0% | 0hPa | 0V | 00:00:00 | 00:00:00 | 00:00:00 | |
| 9A1FER-10 | 2026-08-31 00:48:36 | 46.05114 | 15.17365 | 158° | 9km/h | 22482m | 5.6m/s | 0°C | 0% | 0hPa | 0V | 00:00:00 | 00:00:00 | 00:00:00 | |
| 9A1FER-3 | 2026-08-31 00:48:26 | 46.05105 | 15.17368 | 285° | 7km/h | 22433m | 6.4m/s | 0°C | 0% | 0hPa | 0V | 00:00:00 | 00:00:00 | 00:00:00 | |
| 9A1FER-10 | 2026-08-31 00:48:21 | 46.05113 | 15.17373 | 218° | 7km/h | 22409m | 5.0m/s | 0°C | 0% | 0hPa | 0V | 00:00:00 | 00:00:00 | 00:00:00 | |
| 9A1FER-3 | 2026-08-31 00:48:11 | 46.05106 | 15.17388 | 278° | 7km/h | 22359m | 4.8m/s | 0°C | 0% | 0hPa | 0V | 00:00:00 | 00:00:00 | 00:00:00 | |
| 9A1FER-10 | 2026-08-31 00:48:06 | 46.05106 | 15.17398 | 2° | 9km/h | 22332m | 3.2m/s | 0°C | 0% | 0hPa | 0V | 00:00:00 | 00:00:00 | 00:00:00 | |
| 9A1FER-3 | 2026-08-31 00:47:56 | 46.05110 | 15.17426 | 176° | 9km/h | 22282m | 3.9m/s | 0°C | 0% | 0hPa | 0V | 00:00:00 | 00:00:00 | 00:00:00 | |
| 9A1FER-10 | 2026-08-31 00:47:51 | 46.05120 | 15.17437 | 238° | 7km/h | 22256m | 5.1m/s | 0°C | 0% | 0hPa | 0V | 00:00:00 | 00:00:00 | 00:00:00 | |
| 9A1FER-3 | 2026-08-31 00:47:41 | 46.05135 | 15.17456 | 234° | 7km/h | 22206m | 4.4m/s | 0°C | 0% | 0hPa | 0V | 00:00:00 | 00:00:00 | 00:00:00 | |
| 9A1FER-10 | 2026-08-31 00:47:36 | 46.05142 | 15.17461 | 225° | 5km/h | 22181m | 4.1m/s | 0°C | 0% | 0hPa | 0V | 00:00:00 | 00:00:00 | 00:00:00 | |
| 9A1FER-3 | 2026-08-31 00:47:26 | 46.05149 | 15.17477 | 179° | 5km/h | 22130m | 4.2m/s | 0°C | 0% | 0hPa | 0V | 00:00:00 | 00:00:00 | 00:00:00 | |
| 9A1FER-10 | 2026-08-31 00:47:21 | 46.05152 | 15.17475 | 261° | 7km/h | 22103m | 4.0m/s | 0°C | 0% | 0hPa | 0V | 00:00:00 | 00:00:00 | 00:00:00 | |
| 9A1FER-3 | 2026-08-31 00:47:12 | 46.05149 | 15.17465 | 243° | 13km/h | 22050m | 4.4m/s | 0°C | 0% | 0hPa | 0V | 00:00:00 | 00:00:00 | 00:00:00 | |
| 9A1FER-10 | 2026-08-31 00:47:06 | 46.05140 | 15.17468 | 40° | 13km/h | 22025m | 4.0m/s | 0°C | 0% | 0hPa | 0V | 00:00:00 | 00:00:00 | 00:00:00 | |
| 9A1FER-3 | 2026-08-31 00:46:56 | 46.05122 | 15.17435 | 33° | 9km/h | 21974m | 4.1m/s | 0°C | 0% | 0hPa | 0V | 00:00:00 | 00:00:00 | 00:00:00 | |
| 9A1FER-10 | 2026-08-31 00:46:51 | 46.05118 | 15.17413 | 63° | 9km/h | 21947m | 4.3m/s | 0°C | 0% | 0hPa | 0V | 00:00:00 | 00:00:00 | 00:00:00 | |
| 9A1FER-3 | 2026-08-31 00:46:41 | 46.05106 | 15.17409 | 84° | 15km/h | 21899m | 4.5m/s | 0°C | 0% | 0hPa | 0V | 00:00:00 | 00:00:00 | 00:00:00 | |
| 9A1FER-10 | 2026-08-31 00:46:36 | 46.05110 | 15.17391 | 76° | 18km/h | 21872m | 4.4m/s | 0°C | 0% | 0hPa | 0V | 00:00:00 | 00:00:00 | 00:00:00 | |
| 9A1FER-3 | 2026-08-31 00:46:26 | 46.05113 | 15.17330 | 82° | 22km/h | 21819m | 4.7m/s | 0°C | 0% | 0hPa | 0V | 00:00:00 | 00:00:00 | 00:00:00 | |
| 9A1FER-10 | 2026-08-31 00:46:21 | 46.05110 | 15.17292 | 65° | 22km/h | 21792m | 4.4m/s | 0°C | 0% | 0hPa | 0V | 00:00:00 | 00:00:00 | 00:00:00 | |
| 9A1FER-3 | 2026-08-31 00:46:11 | 46.05099 | 15.17209 | 63° | 24km/h | 21739m | 5.0m/s | 0°C | 0% | 0hPa | 0V | 00:00:00 | 00:00:00 | 00:00:00 | |
| 9A1FER-10 | 2026-08-31 00:46:06 | 46.05091 | 15.17179 | 70° | 27km/h | 21713m | 6.0m/s | 0°C | 0% | 0hPa | 0V | 00:00:00 | 00:00:00 | 00:00:00 | |
| 9A1FER-3 | 2026-08-31 00:45:56 | 46.05057 | 15.17094 | 71° | 27km/h | 21662m | 5.0m/s | 0°C | 0% | 0hPa | 0V | 00:00:00 | 00:00:00 | 00:00:00 | |
| 9A1FER-10 | 2026-08-31 00:45:51 | 46.05036 | 15.17047 | 53° | 26km/h | 21637m | 5.4m/s | 0°C | 0% | 0hPa | 0V | 00:00:00 | 00:00:00 | 00:00:00 | |
| 9A1FER-3 | 2026-08-31 00:45:41 | 46.04991 | 15.16981 | 52° | 29km/h | 21583m | 3.7m/s | 0°C | 0% | 0hPa | 0V | 00:00:00 | 00:00:00 | 00:00:00 | |
| 9A1FER-10 | 2026-08-31 00:45:37 | 46.04969 | 15.16946 | 44° | 31km/h | 21557m | 6.5m/s | 0°C | 0% | 0hPa | 0V | 00:00:00 | 00:00:00 | 00:00:00 | |
| 9A1FER-3 | 2026-08-31 00:45:26 | 46.04911 | 15.16869 | 38° | 29km/h | 21503m | 5.9m/s | 0°C | 0% | 0hPa | 0V | 00:00:00 | 00:00:00 | 00:00:00 | |
| 9A1FER-10 | 2026-08-31 00:45:21 | 46.04879 | 15.16838 | 38° | 27km/h | 21477m | 6.0m/s | 0°C | 0% | 0hPa | 0V | 00:00:00 | 00:00:00 | 00:00:00 | |
| 9A1FER-3 | 2026-08-31 00:45:11 | 46.04816 | 15.16787 | 12° | 24km/h | 21424m | 6.1m/s | 0°C | 0% | 0hPa | 0V | 00:00:00 | 00:00:00 | 00:00:00 | |
| 9A1FER-10 | 2026-08-31 00:45:05 | 46.04781 | 15.16765 | 16° | 18km/h | 21393m | 5.9m/s | 0°C | 0% | 0hPa | 0V | 00:00:00 | 00:00:00 | 00:00:00 | |
| 9A1FER-3 | 2026-08-31 00:44:56 | 46.04736 | 15.16760 | 1° | 13km/h | 21346m | 3.5m/s | 0°C | 0% | 0hPa | 0V | 00:00:00 | 00:00:00 | 00:00:00 | |
| 9A1FER-10 | 2026-08-31 00:44:50 | 46.04714 | 15.16756 | 44° | 9km/h | 21316m | 4.7m/s | 0°C | 0% | 0hPa | 0V | 00:00:00 | 00:00:00 | 00:00:00 | |
| 9A1FER-3 | 2026-08-31 00:44:41 | 46.04695 | 15.16758 | 41° | 9km/h | 21269m | 4.7m/s | 0°C | 0% | 0hPa | 0V | 00:00:00 | 00:00:00 | 00:00:00 | |
| 9A1FER-10 | 2026-08-31 00:44:35 | 46.04689 | 15.16743 | 161° | 9km/h | 21238m | 6.2m/s | 0°C | 0% | 0hPa | 0V | 00:00:00 | 00:00:00 | 00:00:00 | |
| 9A1FER-3 | 2026-08-31 00:44:26 | 46.04687 | 15.16719 | 95° | 15km/h | 21192m | 3.1m/s | 0°C | 0% | 0hPa | 0V | 00:00:00 | 00:00:00 | 00:00:00 | |
| 9A1FER-3 | 2026-08-31 00:44:11 | 46.04688 | 15.16649 | 60° | 20km/h | 21114m | 4.9m/s | 0°C | 0% | 0hPa | 0V | 00:00:00 | 00:00:00 | 00:00:00 | |
| 9A1FER-10 | 2026-08-31 00:44:05 | 46.04676 | 15.16598 | 99° | 18km/h | 21082m | 5.2m/s | 0°C | 0% | 0hPa | 0V | 00:00:00 | 00:00:00 | 00:00:00 | |
| 9A1FER-3 | 2026-08-31 00:43:56 | 46.04670 | 15.16547 | 71° | 20km/h | 21037m | 5.0m/s | 0°C | 0% | 0hPa | 0V | 00:00:00 | 00:00:00 | 00:00:00 | |
| 9A1FER-10 | 2026-08-31 00:43:50 | 46.04667 | 15.16507 | 47° | 22km/h | 21008m | 5.5m/s | 0°C | 0% | 0hPa | 0V | 00:00:00 | 00:00:00 | 00:00:00 | |
| 9A1FER-3 | 2026-08-31 00:43:41 | 46.04651 | 15.16449 | 66° | 20km/h | 20964m | 5.2m/s | 0°C | 0% | 0hPa | 0V | 00:00:00 | 00:00:00 | 00:00:00 | |
| 9A1FER-10 | 2026-08-31 00:43:35 | 46.04626 | 15.16411 | 50° | 16km/h | 20934m | 5.8m/s | 0°C | 0% | 0hPa | 0V | 00:00:00 | 00:00:00 | 00:00:00 | |
| 9A1FER-3 | 2026-08-31 00:43:26 | 46.04595 | 15.16376 | 68° | 15km/h | 20887m | 4.4m/s | 0°C | 0% | 0hPa | 0V | 00:00:00 | 00:00:00 | 00:00:00 | |
| 9A1FER-10 | 2026-08-31 00:43:20 | 46.04580 | 15.16361 | 7° | 20km/h | 20855m | 6.9m/s | 0°C | 0% | 0hPa | 0V | 00:00:00 | 00:00:00 | 00:00:00 | |
| 9A1FER-3 | 2026-08-31 00:43:11 | 46.04543 | 15.16352 | 352° | 22km/h | 20810m | 5.6m/s | 0°C | 0% | 0hPa | 0V | 00:00:00 | 00:00:00 | 00:00:00 | |
| 9A1FER-10 | 2026-08-31 00:43:05 | 46.04508 | 15.16354 | 352° | 22km/h | 20778m | 5.1m/s | 0°C | 0% | 0hPa | 0V | 00:00:00 | 00:00:00 | 00:00:00 | |
| 9A1FER-3 | 2026-08-31 00:42:56 | 46.04464 | 15.16372 | 357° | 18km/h | 20733m | 3.2m/s | 0°C | 0% | 0hPa | 0V | 00:00:00 | 00:00:00 | 00:00:00 | |
| 9A1FER-10 | 2026-08-31 00:42:50 | 46.04432 | 15.16381 | 359° | 18km/h | 20704m | 4.2m/s | 0°C | 0% | 0hPa | 0V | 00:00:00 | 00:00:00 | 00:00:00 | |
| 9A1FER-3 | 2026-08-31 00:42:41 | 46.04397 | 15.16404 | 342° | 18km/h | 20658m | 4.5m/s | 0°C | 0% | 0hPa | 0V | 00:00:00 | 00:00:00 | 00:00:00 | |
| 9A1FER-10 | 2026-08-31 00:42:35 | 46.04369 | 15.16416 | 339° | 16km/h | 20628m | 4.8m/s | 0°C | 0% | 0hPa | 0V | 00:00:00 | 00:00:00 | 00:00:00 | |
| 9A1FER-3 | 2026-08-31 00:42:27 | 46.04338 | 15.16443 | 313° | 11km/h | 20580m | 4.7m/s | 0°C | 0% | 0hPa | 0V | 00:00:00 | 00:00:00 | 00:00:00 | |
| 9A1FER-10 | 2026-08-31 00:42:20 | 46.04323 | 15.16467 | 308° | 7km/h | 20552m | 5.4m/s | 0°C | 0% | 0hPa | 0V | 00:00:00 | 00:00:00 | 00:00:00 | |
| 9A1FER-3 | 2026-08-31 00:42:11 | 46.04309 | 15.16477 | 334° | 11km/h | 20504m | 3.6m/s | 0°C | 0% | 0hPa | 0V | 00:00:00 | 00:00:00 | 00:00:00 | |
| 9A1FER-3 | 2026-08-31 00:41:56 | 46.04289 | 15.16442 | 50° | 11km/h | 20432m | 5.3m/s | 0°C | 0% | 0hPa | 0V | 00:00:00 | 00:00:00 | 00:00:00 | |
| 9A1FER-10 | 2026-08-31 00:41:50 | 46.04276 | 15.16420 | 64° | 11km/h | 20397m | 5.9m/s | 0°C | 0% | 0hPa | 0V | 00:00:00 | 00:00:00 | 00:00:00 | |
| 9A1FER-3 | 2026-08-31 00:41:41 | 46.04276 | 15.16391 | 75° | 9km/h | 20359m | 5.7m/s | 0°C | 0% | 0hPa | 0V | 00:00:00 | 00:00:00 | 00:00:00 | |
| 9A1FER-10 | 2026-08-31 00:41:34 | 46.04263 | 15.16371 | 39° | 9km/h | 20324m | 4.3m/s | 0°C | 0% | 0hPa | 0V | 00:00:00 | 00:00:00 | 00:00:00 | |
| 9A1FER-3 | 2026-08-31 00:41:26 | 46.04254 | 15.16363 | 35° | 11km/h | 20285m | 3.7m/s | 0°C | 0% | 0hPa | 0V | 00:00:00 | 00:00:00 | 00:00:00 | |
| 9A1FER-10 | 2026-08-31 00:41:19 | 46.04237 | 15.16350 | 24° | 9km/h | 20251m | 5.8m/s | 0°C | 0% | 0hPa | 0V | 00:00:00 | 00:00:00 | 00:00:00 | |
| 9A1FER-3 | 2026-08-31 00:41:11 | 46.04217 | 15.16353 | 27° | 11km/h | 20211m | 4.8m/s | 0°C | 0% | 0hPa | 0V | 00:00:00 | 00:00:00 | 00:00:00 | |
| 9A1FER-10 | 2026-08-31 00:41:04 | 46.04205 | 15.16350 | 16° | 13km/h | 20176m | 5.6m/s | 0°C | 0% | 0hPa | 0V | 00:00:00 | 00:00:00 | 00:00:00 | |
| 9A1FER-3 | 2026-08-31 00:40:56 | 46.04181 | 15.16337 | 50° | 11km/h | 20136m | 4.3m/s | 0°C | 0% | 0hPa | 0V | 00:00:00 | 00:00:00 | 00:00:00 | |
| 9A1FER-3 | 2026-08-31 00:40:41 | 46.04143 | 15.16314 | 11° | 11km/h | 20065m | 4.0m/s | 0°C | 0% | 0hPa | 0V | 00:00:00 | 00:00:00 | 00:00:00 | |
| 9A1FER-10 | 2026-08-31 00:40:35 | 46.04129 | 15.16322 | 335° | 9km/h | 20034m | 5.0m/s | 0°C | 0% | 0hPa | 0V | 00:00:00 | 00:00:00 | 00:00:00 | |
| 9A1FER-3 | 2026-08-31 00:40:26 | 46.04109 | 15.16330 | 336° | 5km/h | 19991m | 5.3m/s | 0°C | 0% | 0hPa | 0V | 00:00:00 | 00:00:00 | 00:00:00 | |
| 9A1FER-3 | 2026-08-31 00:40:11 | 46.04105 | 15.16334 | 256° | 5km/h | 19919m | 4.3m/s | 0°C | 0% | 0hPa | 0V | 00:00:00 | 00:00:00 | 00:00:00 | |
| 9A1FER-10 | 2026-08-31 00:39:58 | 46.04103 | 15.16332 | 59° | 7km/h | 19857m | 5.2m/s | 0°C | 0% | 0hPa | 0V | 00:00:00 | 00:00:00 | 00:00:00 | |
| 9A1FER-3 | 2026-08-31 00:39:56 | 46.04101 | 15.16332 | 332° | 7km/h | 19847m | 6.2m/s | 0°C | 0% | 0hPa | 0V | 00:00:00 | 00:00:00 | 00:00:00 | |
| 9A1FER-10 | 2026-08-31 00:39:43 | 46.04084 | 15.16317 | 42° | 7km/h | 19784m | 3.9m/s | 0°C | 0% | 0hPa | 0V | 00:00:00 | 00:00:00 | 00:00:00 | |
| 9A1FER-3 | 2026-08-31 00:39:41 | 46.04082 | 15.16312 | 60° | 7km/h | 19775m | 4.5m/s | 0°C | 0% | 0hPa | 0V | 00:00:00 | 00:00:00 | 00:00:00 | |
| 9A1FER-10 | 2026-08-31 00:39:27 | 46.04063 | 15.16299 | 349° | 11km/h | 19707m | 5.9m/s | 0°C | 0% | 0hPa | 0V | 00:00:00 | 00:00:00 | 00:00:00 | |
| 9A1FER-3 | 2026-08-31 00:39:26 | 46.04061 | 15.16299 | 355° | 13km/h | 19702m | 3.8m/s | 0°C | 0% | 0hPa | 0V | 00:00:00 | 00:00:00 | 00:00:00 | |
| 9A1FER-10 | 2026-08-31 00:39:12 | 46.04022 | 15.16283 | 40° | 9km/h | 19633m | 5.8m/s | 0°C | 0% | 0hPa | 0V | 00:00:00 | 00:00:00 | 00:00:00 | |
| 9A1FER-3 | 2026-08-31 00:39:11 | 46.04020 | 15.16282 | 353° | 9km/h | 19628m | 5.2m/s | 0°C | 0% | 0hPa | 0V | 00:00:00 | 00:00:00 | 00:00:00 | |
| 9A1FER-10 | 2026-08-31 00:38:57 | 46.04003 | 15.16248 | 62° | 24km/h | 19560m | 5.4m/s | 0°C | 0% | 0hPa | 0V | 00:00:00 | 00:00:00 | 00:00:00 | |
| 9A1FER-3 | 2026-08-31 00:38:56 | 46.04000 | 15.16243 | 54° | 22km/h | 19555m | 4.5m/s | 0°C | 0% | 0hPa | 0V | 00:00:00 | 00:00:00 | 00:00:00 | |
| 9A1FER-10 | 2026-08-31 00:38:41 | 46.03956 | 15.16138 | 51° | 26km/h | 19483m | 6.5m/s | 0°C | 0% | 0hPa | 0V | 00:00:00 | 00:00:00 | 00:00:00 | |
| 9A1FER-10 | 2026-08-31 00:38:26 | 46.03897 | 15.16030 | 61° | 22km/h | 19411m | 5.9m/s | 0°C | 0% | 0hPa | 0V | 00:00:00 | 00:00:00 | 00:00:00 | |
| 9A1FER-10 | 2026-08-31 00:38:11 | 46.03856 | 15.15934 | 35° | 22km/h | 19338m | 4.4m/s | 0°C | 0% | 0hPa | 0V | 00:00:00 | 00:00:00 | 00:00:00 | |
| 9A1FER-3 | 2026-08-31 00:37:56 | 46.03804 | 15.15839 | 55° | 16km/h | 19264m | 4.9m/s | 0°C | 0% | 0hPa | 0V | 00:00:00 | 00:00:00 | 00:00:00 | |
| OE3JTB-15 | 2026-08-31 00:37:49 | 46.03779 | 15.15787 | 66° | 49km/h | 19213m | 6.0m/s | 0°C | 0% | 0hPa | 0V | 00:00:00 | 00:00:00 | 00:00:00 | |
| 9A1FER-10 | 2026-08-31 00:37:41 | 46.03773 | 15.15761 | 69° | 16km/h | 19187m | 5.4m/s | 0°C | 0% | 0hPa | 0V | 00:00:00 | 00:00:00 | 00:00:00 | |
| 9A1FER-10 | 2026-08-31 00:37:26 | 46.03752 | 15.15677 | 82° | 20km/h | 19113m | 4.2m/s | 0°C | 0% | 0hPa | 0V | 00:00:00 | 00:00:00 | 00:00:00 | |
| 9A1FER-10 | 2026-08-31 00:37:11 | 46.03739 | 15.15576 | 108° | 18km/h | 19038m | 4.1m/s | 0°C | 0% | 0hPa | 0V | 00:00:00 | 00:00:00 | 00:00:00 | |
| 9A1FER-10 | 2026-08-31 00:36:56 | 46.03730 | 15.15476 | 70° | 22km/h | 18965m | 6.3m/s | 0°C | 0% | 0hPa | 0V | 00:00:00 | 00:00:00 | 00:00:00 | |
| 9A1FER-3 | 2026-08-31 00:36:42 | 46.03699 | 15.15363 | 63° | 24km/h | 18890m | 3.4m/s | 0°C | 0% | 0hPa | 0V | 00:00:00 | 00:00:00 | 00:00:00 | |
| 9A1FER-10 | 2026-08-31 00:36:26 | 46.03658 | 15.15256 | 64° | 24km/h | 18814m | 4.2m/s | 0°C | 0% | 0hPa | 0V | 00:00:00 | 00:00:00 | 00:00:00 | |
| 9A1FER-10 | 2026-08-31 00:36:11 | 46.03593 | 15.15170 | 17° | 18km/h | 18738m | 4.4m/s | 0°C | 0% | 0hPa | 0V | 00:00:00 | 00:00:00 | 00:00:00 | |
| 9A1FER-3 | 2026-08-31 00:35:56 | 46.03540 | 15.15115 | 48° | 15km/h | 18664m | 4.4m/s | 0°C | 0% | 0hPa | 0V | 00:00:00 | 00:00:00 | 00:00:00 | |
| 9A1FER-10 | 2026-08-31 00:35:41 | 46.03499 | 15.15065 | 40° | 13km/h | 18592m | 5.1m/s | 0°C | 0% | 0hPa | 0V | 00:00:00 | 00:00:00 | 00:00:00 | |
| 9A1FER-10 | 2026-08-31 00:35:26 | 46.03470 | 15.15024 | 58° | 16km/h | 18521m | 3.2m/s | 0°C | 0% | 0hPa | 0V | 00:00:00 | 00:00:00 | 00:00:00 | |
| 9A1FER-10 | 2026-08-31 00:35:11 | 46.03440 | 15.14955 | 41° | 18km/h | 18447m | 5.3m/s | 0°C | 0% | 0hPa | 0V | 00:00:00 | 00:00:00 | 00:00:00 | |
| 9A1FER-10 | 2026-08-31 00:34:56 | 46.03420 | 15.14865 | 76° | 22km/h | 18373m | 5.2m/s | 0°C | 0% | 0hPa | 0V | 00:00:00 | 00:00:00 | 00:00:00 | |
| 9A1FER-10 | 2026-08-31 00:34:41 | 46.03385 | 15.14753 | 61° | 31km/h | 18299m | 3.7m/s | 0°C | 0% | 0hPa | 0V | 00:00:00 | 00:00:00 | 00:00:00 | |
| 9A1FER-10 | 2026-08-31 00:34:26 | 46.03311 | 15.14626 | 44° | 29km/h | 18226m | 3.0m/s | 0°C | 0% | 0hPa | 0V | 00:00:00 | 00:00:00 | 00:00:00 | |
| 9A1FER-10 | 2026-08-31 00:34:11 | 46.03222 | 15.14528 | 27° | 29km/h | 18152m | 4.3m/s | 0°C | 0% | 0hPa | 0V | 00:00:00 | 00:00:00 | 00:00:00 | |
| 9A1FER-3 | 2026-08-31 00:33:56 | 46.03120 | 15.14479 | 19° | 27km/h | 18080m | 5.3m/s | 0°C | 0% | 0hPa | 0V | 00:00:00 | 00:00:00 | 00:00:00 | |
| 9A1FER-10 | 2026-08-31 00:33:41 | 46.03023 | 15.14424 | 10° | 20km/h | 18010m | 4.9m/s | 0°C | 0% | 0hPa | 0V | 00:00:00 | 00:00:00 | 00:00:00 | |
| 9A1FER-10 | 2026-08-31 00:33:26 | 46.02946 | 15.14403 | 359° | 18km/h | 17936m | 3.0m/s | 0°C | 0% | 0hPa | 0V | 00:00:00 | 00:00:00 | 00:00:00 | |
| 9A1FER-10 | 2026-08-31 00:33:11 | 46.02877 | 15.14411 | 323° | 16km/h | 17866m | 3.4m/s | 0°C | 0% | 0hPa | 0V | 00:00:00 | 00:00:00 | 00:00:00 | |
| 9A1FER-10 | 2026-08-31 00:32:56 | 46.02823 | 15.14418 | 22° | 9km/h | 17795m | 5.5m/s | 0°C | 0% | 0hPa | 0V | 00:00:00 | 00:00:00 | 00:00:00 | |
| 9A1FER-3 | 2026-08-31 00:32:41 | 46.02792 | 15.14416 | 80° | 9km/h | 17720m | 5.2m/s | 0°C | 0% | 0hPa | 0V | 00:00:00 | 00:00:00 | 00:00:00 | |
| 9A1FER-10 | 2026-08-31 00:32:26 | 46.02817 | 15.14384 | 148° | 16km/h | 17640m | 5.9m/s | 0°C | 0% | 0hPa | 0V | 00:00:00 | 00:00:00 | 00:00:00 | |
| 9A1FER-10 | 2026-08-31 00:32:11 | 46.02873 | 15.14345 | 136° | 22km/h | 17568m | 5.1m/s | 0°C | 0% | 0hPa | 0V | 00:00:00 | 00:00:00 | 00:00:00 | |
| 9A1FER-3 | 2026-08-31 00:31:56 | 46.02934 | 15.14266 | 128° | 22km/h | 17499m | 3.5m/s | 0°C | 0% | 0hPa | 0V | 00:00:00 | 00:00:00 | 00:00:00 | |
| 9A1FER-10 | 2026-08-31 00:31:41 | 46.02988 | 15.14180 | 133° | 29km/h | 17428m | 4.9m/s | 0°C | 0% | 0hPa | 0V | 00:00:00 | 00:00:00 | 00:00:00 | |
| 9A1FER-10 | 2026-08-31 00:31:26 | 46.03035 | 15.14037 | 106° | 35km/h | 17362m | 3.5m/s | 0°C | 0% | 0hPa | 0V | 00:00:00 | 00:00:00 | 00:00:00 | |
| 9A1FER-10 | 2026-08-31 00:31:11 | 46.03051 | 15.13853 | 93° | 26km/h | 17287m | 3.4m/s | 0°C | 0% | 0hPa | 0V | 00:00:00 | 00:00:00 | 00:00:00 | |
| 9A1FER-10 | 2026-08-31 00:30:56 | 46.03039 | 15.13717 | 60° | 27km/h | 17221m | 4.4m/s | 0°C | 0% | 0hPa | 0V | 00:00:00 | 00:00:00 | 00:00:00 | |
| 9A1FER-10 | 2026-08-31 00:30:41 | 46.03010 | 15.13572 | 79° | 33km/h | 17154m | 4.9m/s | 0°C | 0% | 0hPa | 0V | 00:00:00 | 00:00:00 | 00:00:00 | |
| 9A1FER-10 | 2026-08-31 00:30:26 | 46.02997 | 15.13397 | 75° | 42km/h | 17085m | 3.0m/s | 0°C | 0% | 0hPa | 0V | 00:00:00 | 00:00:00 | 00:00:00 | |
| 9A1FER-3 | 2026-08-31 00:30:24 | 46.02993 | 15.13368 | 77° | 42km/h | 17076m | 3.4m/s | 0°C | 0% | 0hPa | 0V | 00:00:00 | 00:00:00 | 00:00:00 | |
| 9A1FER-10 | 2026-08-31 00:30:11 | 46.02965 | 15.13173 | 79° | 44km/h | 17017m | 4.0m/s | 0°C | 0% | 0hPa | 0V | 00:00:00 | 00:00:00 | 00:00:00 | |
| 9A1FER-3 | 2026-08-31 00:30:09 | 46.02960 | 15.13143 | 73° | 42km/h | 17007m | 5.0m/s | 0°C | 0% | 0hPa | 0V | 00:00:00 | 00:00:00 | 00:00:00 | |
| 9A1FER-10 | 2026-08-31 00:29:56 | 46.02910 | 15.12951 | 71° | 49km/h | 16948m | 3.4m/s | 0°C | 0% | 0hPa | 0V | 00:00:00 | 00:00:00 | 00:00:00 | |
| 9A1FER-3 | 2026-08-31 00:29:54 | 46.02901 | 15.12921 | 67° | 51km/h | 16940m | 3.5m/s | 0°C | 0% | 0hPa | 0V | 00:00:00 | 00:00:00 | 00:00:00 | |
| 9A1FER-10 | 2026-08-31 00:29:41 | 46.02837 | 15.12697 | 64° | 53km/h | 16875m | 3.7m/s | 0°C | 0% | 0hPa | 0V | 00:00:00 | 00:00:00 | 00:00:00 | |
| 9A1FER-3 | 2026-08-31 00:29:39 | 46.02826 | 15.12664 | 65° | 51km/h | 16865m | 3.4m/s | 0°C | 0% | 0hPa | 0V | 00:00:00 | 00:00:00 | 00:00:00 | |
| 9A1FER-10 | 2026-08-31 00:29:26 | 46.02748 | 15.12444 | 59° | 49km/h | 16807m | 5.3m/s | 0°C | 0% | 0hPa | 0V | 00:00:00 | 00:00:00 | 00:00:00 | |
| 9A1FER-3 | 2026-08-31 00:29:24 | 46.02736 | 15.12413 | 62° | 51km/h | 16798m | 4.5m/s | 0°C | 0% | 0hPa | 0V | 00:00:00 | 00:00:00 | 00:00:00 | |
| 9A1FER-10 | 2026-08-31 00:29:11 | 46.02664 | 15.12200 | 62° | 47km/h | 16736m | 4.2m/s | 0°C | 0% | 0hPa | 0V | 00:00:00 | 00:00:00 | 00:00:00 | |
| 9A1FER-3 | 2026-08-31 00:29:09 | 46.02652 | 15.12166 | 68° | 44km/h | 16727m | 5.5m/s | 0°C | 0% | 0hPa | 0V | 00:00:00 | 00:00:00 | 00:00:00 | |
| 9A1FER-10 | 2026-08-31 00:28:56 | 46.02576 | 15.11983 | 52° | 38km/h | 16665m | 3.9m/s | 0°C | 0% | 0hPa | 0V | 00:00:00 | 00:00:00 | 00:00:00 | |
| 9A1FER-3 | 2026-08-31 00:28:53 | 46.02560 | 15.11951 | 56° | 40km/h | 16651m | 5.5m/s | 0°C | 0% | 0hPa | 0V | 00:00:00 | 00:00:00 | 00:00:00 | |
| 9A1FER-10 | 2026-08-31 00:28:41 | 46.02502 | 15.11799 | 66° | 38km/h | 16593m | 2.2m/s | 0°C | 0% | 0hPa | 0V | 00:00:00 | 00:00:00 | 00:00:00 | |
| 9A1FER-3 | 2026-08-31 00:28:38 | 46.02489 | 15.11757 | 69° | 38km/h | 16578m | 6.1m/s | 0°C | 0% | 0hPa | 0V | 00:00:00 | 00:00:00 | 00:00:00 | |
| 9A1FER-10 | 2026-08-31 00:28:26 | 46.02453 | 15.11601 | 73° | 38km/h | 16520m | 5.4m/s | 0°C | 0% | 0hPa | 0V | 00:00:00 | 00:00:00 | 00:00:00 | |
| 9A1FER-3 | 2026-08-31 00:28:23 | 46.02442 | 15.11561 | 74° | 38km/h | 16506m | 4.1m/s | 0°C | 0% | 0hPa | 0V | 00:00:00 | 00:00:00 | 00:00:00 | |
| 9A1FER-10 | 2026-08-31 00:28:11 | 46.02448 | 15.11401 | 98° | 42km/h | 16451m | 3.4m/s | 0°C | 0% | 0hPa | 0V | 00:00:00 | 00:00:00 | 00:00:00 | |
| 9A1FER-3 | 2026-08-31 00:28:09 | 46.02454 | 15.11344 | 99° | 44km/h | 16434m | 2.8m/s | 0°C | 0% | 0hPa | 0V | 00:00:00 | 00:00:00 | 00:00:00 | |
| 9A1FER-10 | 2026-08-31 00:27:41 | 46.02460 | 15.10907 | 95° | 46km/h | 16320m | 4.5m/s | 0°C | 0% | 0hPa | 0V | 00:00:00 | 00:00:00 | 00:00:00 | |
| 9A1FER-3 | 2026-08-31 00:27:37 | 46.02462 | 15.10844 | 86° | 47km/h | 16304m | 4.6m/s | 0°C | 0% | 0hPa | 0V | 00:00:00 | 00:00:00 | 00:00:00 | |
| 9A1FER-3 | 2026-08-31 00:27:22 | 46.02438 | 15.10584 | 78° | 51km/h | 16232m | 5.7m/s | 0°C | 0% | 0hPa | 0V | 00:00:00 | 00:00:00 | 00:00:00 | |
| 9A1FER-10 | 2026-08-31 00:27:11 | 46.02417 | 15.10391 | 76° | 46km/h | 16182m | 3.8m/s | 0°C | 0% | 0hPa | 0V | 00:00:00 | 00:00:00 | 00:00:00 | |
| 9A1FER-3 | 2026-08-31 00:27:07 | 46.02386 | 15.10318 | 81° | 46km/h | 16164m | 3.6m/s | 0°C | 0% | 0hPa | 0V | 00:00:00 | 00:00:00 | 00:00:00 | |
| 9A1FER-10 | 2026-08-31 00:26:56 | 46.02355 | 15.10167 | 74° | 46km/h | 16117m | 4.5m/s | 0°C | 0% | 0hPa | 0V | 00:00:00 | 00:00:00 | 00:00:00 | |
| 9A1FER-10 | 2026-08-31 00:26:41 | 46.02295 | 15.09918 | 63° | 44km/h | 16048m | 4.8m/s | 0°C | 0% | 0hPa | 0V | 00:00:00 | 00:00:00 | 00:00:00 | |
| 9A1FER-3 | 2026-08-31 00:26:37 | 46.02276 | 15.09865 | 64° | 44km/h | 16031m | 5.1m/s | 0°C | 0% | 0hPa | 0V | 00:00:00 | 00:00:00 | 00:00:00 | |
| 9A1FER-10 | 2026-08-31 00:26:26 | 46.02214 | 15.09712 | 61° | 40km/h | 15980m | 5.7m/s | 0°C | 0% | 0hPa | 0V | 00:00:00 | 00:00:00 | 00:00:00 | |
| 9A1FER-3 | 2026-08-31 00:26:22 | 46.02196 | 15.09659 | 59° | 40km/h | 15962m | 5.3m/s | 0°C | 0% | 0hPa | 0V | 00:00:00 | 00:00:00 | 00:00:00 | |
| 9A1FER-10 | 2026-08-31 00:26:11 | 46.02150 | 15.09516 | 72° | 42km/h | 15913m | 6.0m/s | 0°C | 0% | 0hPa | 0V | 00:00:00 | 00:00:00 | 00:00:00 | |
| 9A1FER-3 | 2026-08-31 00:26:07 | 46.02136 | 15.09464 | 83° | 44km/h | 15894m | 3.3m/s | 0°C | 0% | 0hPa | 0V | 00:00:00 | 00:00:00 | 00:00:00 | |
| 9A1FER-10 | 2026-08-31 00:25:56 | 46.02117 | 15.09294 | 80° | 46km/h | 15844m | 4.8m/s | 0°C | 0% | 0hPa | 0V | 00:00:00 | 00:00:00 | 00:00:00 | |
| 9A1FER-3 | 2026-08-31 00:25:52 | 46.02114 | 15.09229 | 82° | 47km/h | 15825m | 4.2m/s | 0°C | 0% | 0hPa | 0V | 00:00:00 | 00:00:00 | 00:00:00 | |
| 9A1FER-10 | 2026-08-31 00:25:41 | 46.02109 | 15.09050 | 97° | 51km/h | 15777m | 4.7m/s | 0°C | 0% | 0hPa | 0V | 00:00:00 | 00:00:00 | 00:00:00 | |
| 9A1FER-3 | 2026-08-31 00:25:37 | 46.02112 | 15.08979 | 86° | 57km/h | 15758m | 3.2m/s | 0°C | 0% | 0hPa | 0V | 00:00:00 | 00:00:00 | 00:00:00 | |
| 9A1FER-10 | 2026-08-31 00:25:26 | 46.02116 | 15.08765 | 87° | 58km/h | 15708m | 4.6m/s | 0°C | 0% | 0hPa | 0V | 00:00:00 | 00:00:00 | 00:00:00 | |
| 9A1FER-3 | 2026-08-31 00:25:17 | 46.02116 | 15.08575 | 84° | 58km/h | 15668m | 3.5m/s | 0°C | 0% | 0hPa | 0V | 00:00:00 | 00:00:00 | 00:00:00 | |
| 9A1FER-10 | 2026-08-31 00:25:11 | 46.02106 | 15.08444 | 90° | 62km/h | 15642m | 5.9m/s | 0°C | 0% | 0hPa | 0V | 00:00:00 | 00:00:00 | 00:00:00 | |
| 9A1FER-3 | 2026-08-31 00:25:02 | 46.02097 | 15.08250 | 86° | 64km/h | 15603m | 5.5m/s | 0°C | 0% | 0hPa | 0V | 00:00:00 | 00:00:00 | 00:00:00 | |
| 9A1FER-10 | 2026-08-31 00:24:56 | 46.02092 | 15.08109 | 85° | 60km/h | 15576m | 4.8m/s | 0°C | 0% | 0hPa | 0V | 00:00:00 | 00:00:00 | 00:00:00 | |
| 9A1FER-3 | 2026-08-31 00:24:47 | 46.02086 | 15.07909 | 88° | 62km/h | 15537m | 4.7m/s | 0°C | 0% | 0hPa | 0V | 00:00:00 | 00:00:00 | 00:00:00 | |
| 9A1FER-10 | 2026-08-31 00:24:41 | 46.02090 | 15.07777 | 95° | 64km/h | 15512m | 3.5m/s | 0°C | 0% | 0hPa | 0V | 00:00:00 | 00:00:00 | 00:00:00 | |
| 9A1FER-3 | 2026-08-31 00:24:32 | 46.02102 | 15.07575 | 97° | 64km/h | 15471m | 3.5m/s | 0°C | 0% | 0hPa | 0V | 00:00:00 | 00:00:00 | 00:00:00 | |
| 9A1FER-10 | 2026-08-31 00:24:26 | 46.02113 | 15.07436 | 96° | 68km/h | 15443m | 3.8m/s | 0°C | 0% | 0hPa | 0V | 00:00:00 | 00:00:00 | 00:00:00 | |
| 9A1FER-3 | 2026-08-31 00:24:17 | 46.02123 | 15.07223 | 91° | 73km/h | 15403m | 6.1m/s | 0°C | 0% | 0hPa | 0V | 00:00:00 | 00:00:00 | 00:00:00 | |
| 9A1FER-10 | 2026-08-31 00:24:11 | 46.02124 | 15.07069 | 93° | 73km/h | 15377m | 5.1m/s | 0°C | 0% | 0hPa | 0V | 00:00:00 | 00:00:00 | 00:00:00 | |
| 9A1FER-3 | 2026-08-31 00:24:02 | 46.02123 | 15.06829 | 90° | 73km/h | 15338m | 4.5m/s | 0°C | 0% | 0hPa | 0V | 00:00:00 | 00:00:00 | 00:00:00 | |
| 9A1FER-10 | 2026-08-31 00:23:56 | 46.02120 | 15.06677 | 88° | 75km/h | 15311m | 5.3m/s | 0°C | 0% | 0hPa | 0V | 00:00:00 | 00:00:00 | 00:00:00 | |
| 9A1FER-3 | 2026-08-31 00:23:47 | 46.02104 | 15.06436 | 82° | 77km/h | 15272m | 3.8m/s | 0°C | 0% | 0hPa | 0V | 00:00:00 | 00:00:00 | 00:00:00 | |
| 9A1FER-3 | 2026-08-31 00:23:31 | 46.02054 | 15.05995 | 77° | 75km/h | 15205m | 5.2m/s | 0°C | 0% | 0hPa | 0V | 00:00:00 | 00:00:00 | 00:00:00 | |
| 9A1FER-10 | 2026-08-31 00:23:26 | 46.02031 | 15.05862 | 76° | 71km/h | 15182m | 3.2m/s | 0°C | 0% | 0hPa | 0V | 00:00:00 | 00:00:00 | 00:00:00 | |
| 9A1FER-3 | 2026-08-31 00:23:16 | 46.01992 | 15.05602 | 76° | 68km/h | 15137m | 3.4m/s | 0°C | 0% | 0hPa | 0V | 00:00:00 | 00:00:00 | 00:00:00 | |
| 9A1FER-10 | 2026-08-31 00:23:11 | 46.01973 | 15.05482 | 73° | 66km/h | 15115m | 2.6m/s | 0°C | 0% | 0hPa | 0V | 00:00:00 | 00:00:00 | 00:00:00 | |
| 9A1FER-3 | 2026-08-31 00:23:00 | 46.01929 | 15.05223 | 78° | 64km/h | 15071m | 4.4m/s | 0°C | 0% | 0hPa | 0V | 00:00:00 | 00:00:00 | 00:00:00 | |
| 9A1FER-10 | 2026-08-31 00:22:56 | 46.01918 | 15.05130 | 84° | 62km/h | 15053m | 4.0m/s | 0°C | 0% | 0hPa | 0V | 00:00:00 | 00:00:00 | 00:00:00 | |
| 9A1FER-3 | 2026-08-31 00:22:45 | 46.01895 | 15.04887 | 88° | 64km/h | 15003m | 3.9m/s | 0°C | 0% | 0hPa | 0V | 00:00:00 | 00:00:00 | 00:00:00 | |
| 9A1FER-10 | 2026-08-31 00:22:41 | 46.01890 | 15.04800 | 81° | 66km/h | 14986m | 3.9m/s | 0°C | 0% | 0hPa | 0V | 00:00:00 | 00:00:00 | 00:00:00 | |
| 9A1FER-3 | 2026-08-31 00:22:27 | 46.01862 | 15.04467 | 83° | 68km/h | 14926m | 3.6m/s | 0°C | 0% | 0hPa | 0V | 00:00:00 | 00:00:00 | 00:00:00 | |
| 9A1FER-10 | 2026-08-31 00:22:26 | 46.01860 | 15.04442 | 86° | 68km/h | 14921m | 6.0m/s | 0°C | 0% | 0hPa | 0V | 00:00:00 | 00:00:00 | 00:00:00 | |
| 9A1FER-10 | 2026-08-31 00:22:11 | 46.01826 | 15.04078 | 81° | 66km/h | 14856m | 3.3m/s | 0°C | 0% | 0hPa | 0V | 00:00:00 | 00:00:00 | 00:00:00 | |
| 9A1FER-3 | 2026-08-31 00:22:10 | 46.01823 | 15.04054 | 83° | 66km/h | 14852m | 5.1m/s | 0°C | 0% | 0hPa | 0V | 00:00:00 | 00:00:00 | 00:00:00 | |
| 9A1FER-10 | 2026-08-31 00:21:57 | 46.01803 | 15.03729 | 87° | 66km/h | 14790m | 2.6m/s | 0°C | 0% | 0hPa | 0V | 00:00:00 | 00:00:00 | 00:00:00 | |
| 9A1FER-3 | 2026-08-31 00:21:55 | 46.01802 | 15.03706 | 88° | 66km/h | 14785m | 7.2m/s | 0°C | 0% | 0hPa | 0V | 00:00:00 | 00:00:00 | 00:00:00 | |
| 9A1FER-10 | 2026-08-31 00:21:41 | 46.01808 | 15.03370 | 96° | 62km/h | 14720m | 5.5m/s | 0°C | 0% | 0hPa | 0V | 00:00:00 | 00:00:00 | 00:00:00 | |
| 9A1FER-3 | 2026-08-31 00:21:40 | 46.01809 | 15.03347 | 91° | 62km/h | 14715m | 4.5m/s | 0°C | 0% | 0hPa | 0V | 00:00:00 | 00:00:00 | 00:00:00 | |
| 9A1FER-10 | 2026-08-31 00:21:26 | 46.01843 | 15.03033 | 100° | 66km/h | 14653m | 5.0m/s | 0°C | 0% | 0hPa | 0V | 00:00:00 | 00:00:00 | 00:00:00 | |
| 9A1FER-3 | 2026-08-31 00:21:22 | 46.01854 | 15.02942 | 99° | 71km/h | 14637m | 4.5m/s | 0°C | 0% | 0hPa | 0V | 00:00:00 | 00:00:00 | 00:00:00 | |
| 9A1FER-10 | 2026-08-31 00:21:11 | 46.01878 | 15.02674 | 92° | 73km/h | 14593m | 4.8m/s | 0°C | 0% | 0hPa | 0V | 00:00:00 | 00:00:00 | 00:00:00 | |
| 9A1FER-3 | 2026-08-31 00:21:07 | 46.01880 | 15.02562 | 93° | 68km/h | 14575m | 5.8m/s | 0°C | 0% | 0hPa | 0V | 00:00:00 | 00:00:00 | 00:00:00 | |
| 9A1FER-10 | 2026-08-31 00:20:56 | 46.01888 | 15.02283 | 90° | 64km/h | 14526m | 3.7m/s | 0°C | 0% | 0hPa | 0V | 00:00:00 | 00:00:00 | 00:00:00 | |
| 9A1FER-3 | 2026-08-31 00:20:51 | 46.01886 | 15.02172 | 90° | 64km/h | 14502m | 3.3m/s | 0°C | 0% | 0hPa | 0V | 00:00:00 | 00:00:00 | 00:00:00 | |
| 9A1FER-10 | 2026-08-31 00:20:41 | 46.01888 | 15.01940 | 95° | 60km/h | 14461m | 3.6m/s | 0°C | 0% | 0hPa | 0V | 00:00:00 | 00:00:00 | 00:00:00 | |
| 9A1FER-3 | 2026-08-31 00:20:36 | 46.01902 | 15.01826 | 99° | 58km/h | 14435m | 4.3m/s | 0°C | 0% | 0hPa | 0V | 00:00:00 | 00:00:00 | 00:00:00 | |
| 9A1FER-10 | 2026-08-31 00:20:27 | 46.01903 | 15.01614 | 92° | 57km/h | 14380m | 2.9m/s | 0°C | 0% | 0hPa | 0V | 00:00:00 | 00:00:00 | 00:00:00 | |
| 9A1FER-3 | 2026-08-31 00:20:21 | 46.01905 | 15.01510 | 88° | 58km/h | 14353m | 3.1m/s | 0°C | 0% | 0hPa | 0V | 00:00:00 | 00:00:00 | 00:00:00 | |
| 9A1FER-10 | 2026-08-31 00:20:10 | 46.01900 | 15.01288 | 98° | 57km/h | 14292m | 3.4m/s | 0°C | 0% | 0hPa | 0V | 00:00:00 | 00:00:00 | 00:00:00 | |
| 9A1FER-3 | 2026-08-31 00:20:06 | 46.01905 | 15.01201 | 91° | 55km/h | 14271m | 6.6m/s | 0°C | 0% | 0hPa | 0V | 00:00:00 | 00:00:00 | 00:00:00 | |
| 9A1FER-10 | 2026-08-31 00:19:55 | 46.01917 | 15.00984 | 94° | 51km/h | 14212m | 6.0m/s | 0°C | 0% | 0hPa | 0V | 00:00:00 | 00:00:00 | 00:00:00 | |
| 9A1FER-3 | 2026-08-31 00:19:51 | 46.01921 | 15.00911 | 97° | 47km/h | 14191m | 3.3m/s | 0°C | 0% | 0hPa | 0V | 00:00:00 | 00:00:00 | 00:00:00 | |
| 9A1FER-10 | 2026-08-31 00:19:40 | 46.01941 | 15.00715 | 98° | 53km/h | 14139m | 9.6m/s | 0°C | 0% | 0hPa | 0V | 00:00:00 | 00:00:00 | 00:00:00 | |
| 9A1FER-3 | 2026-08-31 00:19:36 | 46.01955 | 15.00654 | 101° | 55km/h | 14117m | 3.9m/s | 0°C | 0% | 0hPa | 0V | 00:00:00 | 00:00:00 | 00:00:00 | |
| 9A1FER-10 | 2026-08-31 00:19:25 | 46.01988 | 15.00437 | 105° | 58km/h | 14050m | 3.7m/s | 0°C | 0% | 0hPa | 0V | 00:00:00 | 00:00:00 | 00:00:00 | |
| 9A1FER-3 | 2026-08-31 00:19:21 | 46.02004 | 15.00368 | 107° | 60km/h | 14030m | 6.2m/s | 0°C | 0% | 0hPa | 0V | 00:00:00 | 00:00:00 | 00:00:00 | |
| 9A1FER-10 | 2026-08-31 00:19:10 | 46.02061 | 15.00139 | 102° | 71km/h | 13977m | 3.3m/s | 0°C | 0% | 0hPa | 0V | 00:00:00 | 00:00:00 | 00:00:00 | |
| 9A1FER-3 | 2026-08-31 00:19:06 | 46.02079 | 15.00052 | 110° | 73km/h | 13959m | 4.5m/s | 0°C | 0% | 0hPa | 0V | 00:00:00 | 00:00:00 | 00:00:00 | |
| 9A1FER-10 | 2026-08-31 00:18:55 | 46.02152 | 14.99774 | 114° | 71km/h | 13907m | 5.0m/s | 0°C | 0% | 0hPa | 0V | 00:00:00 | 00:00:00 | 00:00:00 | |
| 9A1FER-3 | 2026-08-31 00:18:51 | 46.02178 | 14.99678 | 112° | 69km/h | 13890m | 2.9m/s | 0°C | 0% | 0hPa | 0V | 00:00:00 | 00:00:00 | 00:00:00 | |
| 9A1FER-10 | 2026-08-31 00:18:40 | 46.02243 | 14.99410 | 109° | 73km/h | 13842m | 3.5m/s | 0°C | 0% | 0hPa | 0V | 00:00:00 | 00:00:00 | 00:00:00 | |
| 9A1FER-3 | 2026-08-31 00:18:37 | 46.02264 | 14.99317 | 106° | 75km/h | 13825m | 3.8m/s | 0°C | 0% | 0hPa | 0V | 00:00:00 | 00:00:00 | 00:00:00 | |
| 9A1FER-10 | 2026-08-31 00:18:25 | 46.02327 | 14.99033 | 106° | 82km/h | 13774m | 5.1m/s | 0°C | 0% | 0hPa | 0V | 00:00:00 | 00:00:00 | 00:00:00 | |
| 9A1FER-3 | 2026-08-31 00:18:21 | 46.02350 | 14.98923 | 106° | 84km/h | 13756m | 4.5m/s | 0°C | 0% | 0hPa | 0V | 00:00:00 | 00:00:00 | 00:00:00 | |
| 9A1FER-10 | 2026-08-31 00:18:10 | 46.02417 | 14.98604 | 109° | 88km/h | 13707m | 4.2m/s | 0°C | 0% | 0hPa | 0V | 00:00:00 | 00:00:00 | 00:00:00 | |
| 9A1FER-3 | 2026-08-31 00:18:06 | 46.02443 | 14.98487 | 107° | 89km/h | 13689m | 4.2m/s | 0°C | 0% | 0hPa | 0V | 00:00:00 | 00:00:00 | 00:00:00 | |
| 9A1FER-10 | 2026-08-31 00:17:55 | 46.02518 | 14.98142 | 106° | 91km/h | 13642m | 4.9m/s | 0°C | 0% | 0hPa | 0V | 00:00:00 | 00:00:00 | 00:00:00 | |
| 9A1FER-3 | 2026-08-31 00:17:51 | 46.02547 | 14.98021 | 109° | 91km/h | 13625m | 3.0m/s | 0°C | 0% | 0hPa | 0V | 00:00:00 | 00:00:00 | 00:00:00 | |
| 9A1FER-10 | 2026-08-31 00:17:39 | 46.02639 | 14.97648 | 104° | 95km/h | 13573m | 5.1m/s | 0°C | 0% | 0hPa | 0V | 00:00:00 | 00:00:00 | 00:00:00 | |
| 9A1FER-3 | 2026-08-31 00:17:36 | 46.02655 | 14.97550 | 106° | 95km/h | 13561m | 3.3m/s | 0°C | 0% | 0hPa | 0V | 00:00:00 | 00:00:00 | 00:00:00 | |
| 9A1FER-10 | 2026-08-31 00:17:24 | 46.02757 | 14.97163 | 115° | 97km/h | 13508m | 5.4m/s | 0°C | 0% | 0hPa | 0V | 00:00:00 | 00:00:00 | 00:00:00 | |
| 9A1FER-3 | 2026-08-31 00:17:21 | 46.02785 | 14.97070 | 114° | 99km/h | 13494m | 3.5m/s | 0°C | 0% | 0hPa | 0V | 00:00:00 | 00:00:00 | 00:00:00 | |
| 9A1FER-10 | 2026-08-31 00:17:09 | 46.02905 | 14.96682 | 115° | 99km/h | 13441m | 5.1m/s | 0°C | 0% | 0hPa | 0V | 00:00:00 | 00:00:00 | 00:00:00 | |
| 9A1FER-3 | 2026-08-31 00:17:07 | 46.02938 | 14.96583 | 114° | 100km/h | 13429m | 4.3m/s | 0°C | 0% | 0hPa | 0V | 00:00:00 | 00:00:00 | 00:00:00 | |
| 9A1FER-10 | 2026-08-31 00:16:54 | 46.03069 | 14.96196 | 115° | 102km/h | 13375m | 5.3m/s | 0°C | 0% | 0hPa | 0V | 00:00:00 | 00:00:00 | 00:00:00 | |
| 9A1FER-3 | 2026-08-31 00:16:51 | 46.03103 | 14.96091 | 115° | 100km/h | 13362m | 3.7m/s | 0°C | 0% | 0hPa | 0V | 00:00:00 | 00:00:00 | 00:00:00 | |
| 9A1FER-10 | 2026-08-31 00:16:39 | 46.03238 | 14.95694 | 118° | 102km/h | 13309m | 5.0m/s | 0°C | 0% | 0hPa | 0V | 00:00:00 | 00:00:00 | 00:00:00 | |
| 9A1FER-3 | 2026-08-31 00:16:36 | 46.03272 | 14.95596 | 117° | 102km/h | 13296m | 3.9m/s | 0°C | 0% | 0hPa | 0V | 00:00:00 | 00:00:00 | 00:00:00 | |
| 9A1FER-10 | 2026-08-31 00:16:24 | 46.03408 | 14.95194 | 118° | 100km/h | 13242m | 3.7m/s | 0°C | 0% | 0hPa | 0V | 00:00:00 | 00:00:00 | 00:00:00 | |
| 9A1FER-3 | 2026-08-31 00:16:21 | 46.03441 | 14.95094 | 114° | 100km/h | 13230m | 3.6m/s | 0°C | 0% | 0hPa | 0V | 00:00:00 | 00:00:00 | 00:00:00 | |
| 9A1FER-10 | 2026-08-31 00:16:09 | 46.03571 | 14.94702 | 114° | 95km/h | 13175m | 3.8m/s | 0°C | 0% | 0hPa | 0V | 00:00:00 | 00:00:00 | 00:00:00 | |
| 9A1FER-3 | 2026-08-31 00:16:06 | 46.03602 | 14.94603 | 116° | 93km/h | 13163m | 3.1m/s | 0°C | 0% | 0hPa | 0V | 00:00:00 | 00:00:00 | 00:00:00 | |
| 9A1FER-10 | 2026-08-31 00:15:54 | 46.03727 | 14.94240 | 117° | 89km/h | 13111m | 2.8m/s | 0°C | 0% | 0hPa | 0V | 00:00:00 | 00:00:00 | 00:00:00 | |
| 9A1FER-3 | 2026-08-31 00:15:51 | 46.03760 | 14.94152 | 119° | 88km/h | 13098m | 4.2m/s | 0°C | 0% | 0hPa | 0V | 00:00:00 | 00:00:00 | 00:00:00 | |
| 9A1FER-10 | 2026-08-31 00:15:39 | 46.03868 | 14.93803 | 118° | 88km/h | 13046m | 4.2m/s | 0°C | 0% | 0hPa | 0V | 00:00:00 | 00:00:00 | 00:00:00 | |
| 9A1FER-3 | 2026-08-31 00:15:37 | 46.03899 | 14.93715 | 117° | 88km/h | 13033m | 3.4m/s | 0°C | 0% | 0hPa | 0V | 00:00:00 | 00:00:00 | 00:00:00 | |
| 9A1FER-10 | 2026-08-31 00:15:24 | 46.04012 | 14.93370 | 117° | 89km/h | 12981m | 5.3m/s | 0°C | 0% | 0hPa | 0V | 00:00:00 | 00:00:00 | 00:00:00 | |
| 9A1FER-3 | 2026-08-31 00:15:21 | 46.04038 | 14.93281 | 111° | 91km/h | 12968m | 3.6m/s | 0°C | 0% | 0hPa | 0V | 00:00:00 | 00:00:00 | 00:00:00 | |
| 9A1FER-10 | 2026-08-31 00:15:09 | 46.04142 | 14.92917 | 112° | 89km/h | 12915m | 3.9m/s | 0°C | 0% | 0hPa | 0V | 00:00:00 | 00:00:00 | 00:00:00 | |
| 9A1FER-3 | 2026-08-31 00:15:06 | 46.04170 | 14.92826 | 116° | 89km/h | 12902m | 3.7m/s | 0°C | 0% | 0hPa | 0V | 00:00:00 | 00:00:00 | 00:00:00 | |
| 9A1FER-10 | 2026-08-31 00:14:54 | 46.04279 | 14.92469 | 115° | 89km/h | 12850m | 3.8m/s | 0°C | 0% | 0hPa | 0V | 00:00:00 | 00:00:00 | 00:00:00 | |
| 9A1FER-3 | 2026-08-31 00:14:51 | 46.04303 | 14.92380 | 109° | 89km/h | 12837m | 4.4m/s | 0°C | 0% | 0hPa | 0V | 00:00:00 | 00:00:00 | 00:00:00 | |
| 9A1FER-10 | 2026-08-31 00:14:39 | 46.04405 | 14.92019 | 112° | 89km/h | 12786m | 3.3m/s | 0°C | 0% | 0hPa | 0V | 00:00:00 | 00:00:00 | 00:00:00 | |
| 9A1FER-3 | 2026-08-31 00:14:36 | 46.04431 | 14.91929 | 114° | 91km/h | 12774m | 5.0m/s | 0°C | 0% | 0hPa | 0V | 00:00:00 | 00:00:00 | 00:00:00 | |
| 9A1FER-10 | 2026-08-31 00:14:24 | 46.04541 | 14.91568 | 115° | 89km/h | 12722m | 5.8m/s | 0°C | 0% | 0hPa | 0V | 00:00:00 | 00:00:00 | 00:00:00 | |
| 9A1FER-3 | 2026-08-31 00:14:21 | 46.04577 | 14.91443 | 113° | 89km/h | 12705m | 4.2m/s | 0°C | 0% | 0hPa | 0V | 00:00:00 | 00:00:00 | 00:00:00 | |
| 9A1FER-10 | 2026-08-31 00:14:09 | 46.04672 | 14.91114 | 112° | 91km/h | 12658m | 2.6m/s | 0°C | 0% | 0hPa | 0V | 00:00:00 | 00:00:00 | 00:00:00 | |
| 9A1FER-3 | 2026-08-31 00:14:05 | 46.04713 | 14.90995 | 116° | 89km/h | 12640m | 3.9m/s | 0°C | 0% | 0hPa | 0V | 00:00:00 | 00:00:00 | 00:00:00 | |
| 9A1FER-10 | 2026-08-31 00:13:54 | 46.04815 | 14.90667 | 115° | 91km/h | 12594m | 4.6m/s | 0°C | 0% | 0hPa | 0V | 00:00:00 | 00:00:00 | 00:00:00 | |
| 9A1FER-3 | 2026-08-31 00:13:50 | 46.04856 | 14.90549 | 119° | 91km/h | 12578m | 4.3m/s | 0°C | 0% | 0hPa | 0V | 00:00:00 | 00:00:00 | 00:00:00 | |
| 9A1FER-10 | 2026-08-31 00:13:39 | 46.04964 | 14.90217 | 117° | 89km/h | 12528m | 4.0m/s | 0°C | 0% | 0hPa | 0V | 00:00:00 | 00:00:00 | 00:00:00 | |
| 9A1FER-3 | 2026-08-31 00:13:35 | 46.05002 | 14.90099 | 116° | 89km/h | 12511m | 4.6m/s | 0°C | 0% | 0hPa | 0V | 00:00:00 | 00:00:00 | 00:00:00 | |
| 9A1FER-10 | 2026-08-31 00:13:24 | 46.05114 | 14.89784 | 120° | 91km/h | 12462m | 3.6m/s | 0°C | 0% | 0hPa | 0V | 00:00:00 | 00:00:00 | 00:00:00 | |
| 9A1FER-3 | 2026-08-31 00:13:20 | 46.05158 | 14.89668 | 118° | 91km/h | 12446m | 4.6m/s | 0°C | 0% | 0hPa | 0V | 00:00:00 | 00:00:00 | 00:00:00 | |
| 9A1FER-10 | 2026-08-31 00:13:09 | 46.05277 | 14.89346 | 121° | 88km/h | 12400m | 4.6m/s | 0°C | 0% | 0hPa | 0V | 00:00:00 | 00:00:00 | 00:00:00 | |
| 9A1FER-3 | 2026-08-31 00:13:05 | 46.05321 | 14.89236 | 118° | 88km/h | 12383m | 5.7m/s | 0°C | 0% | 0hPa | 0V | 00:00:00 | 00:00:00 | 00:00:00 | |
| 9A1FER-10 | 2026-08-31 00:12:54 | 46.05437 | 14.88929 | 117° | 88km/h | 12335m | 3.8m/s | 0°C | 0% | 0hPa | 0V | 00:00:00 | 00:00:00 | 00:00:00 | |
| 9A1FER-3 | 2026-08-31 00:12:50 | 46.05475 | 14.88815 | 116° | 88km/h | 12318m | 4.5m/s | 0°C | 0% | 0hPa | 0V | 00:00:00 | 00:00:00 | 00:00:00 | |
| 9A1FER-10 | 2026-08-31 00:12:39 | 46.05591 | 14.88510 | 117° | 88km/h | 12270m | 4.7m/s | 0°C | 0% | 0hPa | 0V | 00:00:00 | 00:00:00 | 00:00:00 | |
| 9A1FER-3 | 2026-08-31 00:12:35 | 46.05631 | 14.88399 | 122° | 88km/h | 12253m | 3.7m/s | 0°C | 0% | 0hPa | 0V | 00:00:00 | 00:00:00 | 00:00:00 | |
| 9A1FER-10 | 2026-08-31 00:12:24 | 46.05750 | 14.88095 | 125° | 89km/h | 12209m | 4.6m/s | 0°C | 0% | 0hPa | 0V | 00:00:00 | 00:00:00 | 00:00:00 | |
| 9A1FER-3 | 2026-08-31 00:12:20 | 46.05796 | 14.87985 | 118° | 91km/h | 12191m | 4.2m/s | 0°C | 0% | 0hPa | 0V | 00:00:00 | 00:00:00 | 00:00:00 | |
| 9A1FER-3 | 2026-08-31 00:12:05 | 46.05972 | 14.87552 | 120° | 95km/h | 12121m | 3.3m/s | 0°C | 0% | 0hPa | 0V | 00:00:00 | 00:00:00 | 00:00:00 | |
| 9A1FER-10 | 2026-08-31 00:11:54 | 46.06105 | 14.87222 | 119° | 97km/h | 12073m | 4.2m/s | 0°C | 0% | 0hPa | 0V | 00:00:00 | 00:00:00 | 00:00:00 | |
| 9A1FER-3 | 2026-08-31 00:11:50 | 46.06153 | 14.87104 | 123° | 99km/h | 12056m | 3.5m/s | 0°C | 0% | 0hPa | 0V | 00:00:00 | 00:00:00 | 00:00:00 | |
| 9A1FER-10 | 2026-08-31 00:11:38 | 46.06305 | 14.86734 | 123° | 100km/h | 12002m | 4.4m/s | 0°C | 0% | 0hPa | 0V | 00:00:00 | 00:00:00 | 00:00:00 | |
| 9A1FER-10 | 2026-08-31 00:11:23 | 46.06493 | 14.86252 | 118° | 99km/h | 11938m | 4.4m/s | 0°C | 0% | 0hPa | 0V | 00:00:00 | 00:00:00 | 00:00:00 | |
| 9A1FER-3 | 2026-08-31 00:11:20 | 46.06530 | 14.86152 | 117° | 99km/h | 11925m | 4.7m/s | 0°C | 0% | 0hPa | 0V | 00:00:00 | 00:00:00 | 00:00:00 | |
| 9A1FER-10 | 2026-08-31 00:11:08 | 46.06671 | 14.85774 | 119° | 99km/h | 11876m | 4.2m/s | 0°C | 0% | 0hPa | 0V | 00:00:00 | 00:00:00 | 00:00:00 | |
| 9A1FER-3 | 2026-08-31 00:11:04 | 46.06718 | 14.85650 | 119° | 99km/h | 11857m | 5.0m/s | 0°C | 0% | 0hPa | 0V | 00:00:00 | 00:00:00 | 00:00:00 | |
| 9A1FER-10 | 2026-08-31 00:10:54 | 46.06849 | 14.85301 | 120° | 99km/h | 11810m | 3.4m/s | 0°C | 0% | 0hPa | 0V | 00:00:00 | 00:00:00 | 00:00:00 | |
| 9A1FER-3 | 2026-08-31 00:10:49 | 46.06896 | 14.85175 | 119° | 97km/h | 11794m | 4.2m/s | 0°C | 0% | 0hPa | 0V | 00:00:00 | 00:00:00 | 00:00:00 | |
| 9A1FER-10 | 2026-08-31 00:10:38 | 46.07030 | 14.84838 | 120° | 93km/h | 11748m | 5.1m/s | 0°C | 0% | 0hPa | 0V | 00:00:00 | 00:00:00 | 00:00:00 | |
| 9A1FER-3 | 2026-08-31 00:10:33 | 46.07091 | 14.84689 | 123° | 93km/h | 11726m | 2.7m/s | 0°C | 0% | 0hPa | 0V | 00:00:00 | 00:00:00 | 00:00:00 | |
| 9A1FER-10 | 2026-08-31 00:10:23 | 46.07209 | 14.84397 | 121° | 91km/h | 11684m | 3.3m/s | 0°C | 0% | 0hPa | 0V | 00:00:00 | 00:00:00 | 00:00:00 | |
| 9A1FER-3 | 2026-08-31 00:10:18 | 46.07269 | 14.84251 | 121° | 91km/h | 11661m | 4.4m/s | 0°C | 0% | 0hPa | 0V | 00:00:00 | 00:00:00 | 00:00:00 | |
| 9A1FER-3 | 2026-08-31 00:10:03 | 46.07436 | 14.83812 | 119° | 89km/h | 11596m | 4.1m/s | 0°C | 0% | 0hPa | 0V | 00:00:00 | 00:00:00 | 00:00:00 | |
| 9A1FER-3 | 2026-08-31 00:09:48 | 46.07605 | 14.83382 | 123° | 89km/h | 11538m | 5.8m/s | 0°C | 0% | 0hPa | 0V | 00:00:00 | 00:00:00 | 00:00:00 | |
| 9A1FER-3 | 2026-08-31 00:09:33 | 46.07778 | 14.82959 | 123° | 91km/h | 11473m | 3.5m/s | 0°C | 0% | 0hPa | 0V | 00:00:00 | 00:00:00 | 00:00:00 | |
| 9A1FER-10 | 2026-08-31 00:09:26 | 46.07860 | 14.82759 | 121° | 88km/h | 11442m | 5.0m/s | 0°C | 0% | 0hPa | 0V | 00:00:00 | 00:00:00 | 00:00:00 | |
| 9A1FER-3 | 2026-08-31 00:09:18 | 46.07950 | 14.82532 | 122° | 88km/h | 11407m | 4.8m/s | 0°C | 0% | 0hPa | 0V | 00:00:00 | 00:00:00 | 00:00:00 | |
| 9A1FER-3 | 2026-08-31 00:09:03 | 46.08122 | 14.82120 | 120° | 88km/h | 11341m | 2.5m/s | 0°C | 0% | 0hPa | 0V | 00:00:00 | 00:00:00 | 00:00:00 | |
| 9A1FER-10 | 2026-08-31 00:08:52 | 46.08243 | 14.81814 | 118° | 86km/h | 11295m | 4.9m/s | 0°C | 0% | 0hPa | 0V | 00:00:00 | 00:00:00 | 00:00:00 | |
| 9A1FER-3 | 2026-08-31 00:08:48 | 46.08284 | 14.81703 | 122° | 86km/h | 11278m | 4.4m/s | 0°C | 0% | 0hPa | 0V | 00:00:00 | 00:00:00 | 00:00:00 | |
| 9A1FER-10 | 2026-08-31 00:08:37 | 46.08399 | 14.81404 | 118° | 88km/h | 11234m | 4.3m/s | 0°C | 0% | 0hPa | 0V | 00:00:00 | 00:00:00 | 00:00:00 | |
| 9A1FER-3 | 2026-08-31 00:08:33 | 46.08439 | 14.81292 | 119° | 88km/h | 11217m | 5.7m/s | 0°C | 0% | 0hPa | 0V | 00:00:00 | 00:00:00 | 00:00:00 | |
| 9A1FER-10 | 2026-08-31 00:08:22 | 46.08554 | 14.80982 | 119° | 88km/h | 11171m | 3.4m/s | 0°C | 0% | 0hPa | 0V | 00:00:00 | 00:00:00 | 00:00:00 | |
| 9A1FER-3 | 2026-08-31 00:08:18 | 46.08595 | 14.80870 | 115° | 86km/h | 11154m | 3.6m/s | 0°C | 0% | 0hPa | 0V | 00:00:00 | 00:00:00 | 00:00:00 | |
| 9A1FER-10 | 2026-08-31 00:08:07 | 46.08704 | 14.80562 | 114° | 84km/h | 11108m | 3.4m/s | 0°C | 0% | 0hPa | 0V | 00:00:00 | 00:00:00 | 00:00:00 | |
| 9A1FER-3 | 2026-08-31 00:08:03 | 46.08743 | 14.80454 | 120° | 88km/h | 11091m | 4.2m/s | 0°C | 0% | 0hPa | 0V | 00:00:00 | 00:00:00 | 00:00:00 | |
| 9A1FER-10 | 2026-08-31 00:07:52 | 46.08849 | 14.80147 | 117° | 80km/h | 11043m | 5.9m/s | 0°C | 0% | 0hPa | 0V | 00:00:00 | 00:00:00 | 00:00:00 | |
| 9A1FER-3 | 2026-08-31 00:07:48 | 46.08884 | 14.80027 | 112° | 75km/h | 11026m | 3.9m/s | 0°C | 0% | 0hPa | 0V | 00:00:00 | 00:00:00 | 00:00:00 | |
| 9A1FER-10 | 2026-08-31 00:07:37 | 46.08970 | 14.79753 | 115° | 75km/h | 10976m | 5.4m/s | 0°C | 0% | 0hPa | 0V | 00:00:00 | 00:00:00 | 00:00:00 | |
| 9A1FER-3 | 2026-08-31 00:07:33 | 46.09005 | 14.79655 | 115° | 75km/h | 10958m | 3.0m/s | 0°C | 0% | 0hPa | 0V | 00:00:00 | 00:00:00 | 00:00:00 | |
| 9A1FER-10 | 2026-08-31 00:07:22 | 46.09087 | 14.79382 | 116° | 73km/h | 10911m | 2.7m/s | 0°C | 0% | 0hPa | 0V | 00:00:00 | 00:00:00 | 00:00:00 | |
| 9A1FER-3 | 2026-08-31 00:07:18 | 46.09116 | 14.79287 | 112° | 71km/h | 10895m | 4.8m/s | 0°C | 0% | 0hPa | 0V | 00:00:00 | 00:00:00 | 00:00:00 | |
| 9A1FER-10 | 2026-08-31 00:07:07 | 46.09194 | 14.79019 | 116° | 73km/h | 10853m | 3.7m/s | 0°C | 0% | 0hPa | 0V | 00:00:00 | 00:00:00 | 00:00:00 | |
| 9A1FER-3 | 2026-08-31 00:07:03 | 46.09220 | 14.78925 | 114° | 73km/h | 10840m | 3.8m/s | 0°C | 0% | 0hPa | 0V | 00:00:00 | 00:00:00 | 00:00:00 | |
| 9A1FER-10 | 2026-08-31 00:06:48 | 46.09327 | 14.78558 | 114° | 75km/h | 10777m | 5.0m/s | 0°C | 0% | 0hPa | 0V | 00:00:00 | 00:00:00 | 00:00:00 | |
| 9A1FER-3 | 2026-08-31 00:06:33 | 46.09440 | 14.78190 | 114° | 75km/h | 10716m | 4.1m/s | 0°C | 0% | 0hPa | 0V | 00:00:00 | 00:00:00 | 00:00:00 | |
| 9A1FER-10 | 2026-08-31 00:06:31 | 46.09456 | 14.78137 | 115° | 73km/h | 10707m | 4.8m/s | 0°C | 0% | 0hPa | 0V | 00:00:00 | 00:00:00 | 00:00:00 | |
| 9A1FER-3 | 2026-08-31 00:06:18 | 46.09547 | 14.77816 | 117° | 71km/h | 10649m | 4.9m/s | 0°C | 0% | 0hPa | 0V | 00:00:00 | 00:00:00 | 00:00:00 | |
| 9A1FER-10 | 2026-08-31 00:06:16 | 46.09563 | 14.77770 | 113° | 71km/h | 10641m | 2.9m/s | 0°C | 0% | 0hPa | 0V | 00:00:00 | 00:00:00 | 00:00:00 | |
| 9A1FER-3 | 2026-08-31 00:06:03 | 46.09649 | 14.77454 | 112° | 71km/h | 10589m | 4.5m/s | 0°C | 0% | 0hPa | 0V | 00:00:00 | 00:00:00 | 00:00:00 | |
| 9A1FER-10 | 2026-08-31 00:06:01 | 46.09662 | 14.77407 | 113° | 71km/h | 10581m | 3.9m/s | 0°C | 0% | 0hPa | 0V | 00:00:00 | 00:00:00 | 00:00:00 | |
| 9A1FER-3 | 2026-08-31 00:05:48 | 46.09748 | 14.77094 | 111° | 75km/h | 10525m | 4.3m/s | 0°C | 0% | 0hPa | 0V | 00:00:00 | 00:00:00 | 00:00:00 | |
| 9A1FER-10 | 2026-08-31 00:05:46 | 46.09761 | 14.77042 | 112° | 73km/h | 10517m | 3.9m/s | 0°C | 0% | 0hPa | 0V | 00:00:00 | 00:00:00 | 00:00:00 | |
| 9A1FER-3 | 2026-08-31 00:05:33 | 46.09847 | 14.76713 | 112° | 75km/h | 10463m | 4.3m/s | 0°C | 0% | 0hPa | 0V | 00:00:00 | 00:00:00 | 00:00:00 | |
| 9A1FER-10 | 2026-08-31 00:05:31 | 46.09860 | 14.76666 | 112° | 77km/h | 10455m | 3.0m/s | 0°C | 0% | 0hPa | 0V | 00:00:00 | 00:00:00 | 00:00:00 | |
| 9A1FER-3 | 2026-08-31 00:05:18 | 46.09947 | 14.76328 | 113° | 77km/h | 10402m | 4.1m/s | 0°C | 0% | 0hPa | 0V | 00:00:00 | 00:00:00 | 00:00:00 | |
| 9A1FER-10 | 2026-08-31 00:05:16 | 46.09960 | 14.76276 | 111° | 77km/h | 10394m | 2.6m/s | 0°C | 0% | 0hPa | 0V | 00:00:00 | 00:00:00 | 00:00:00 | |
| 9A1FER-3 | 2026-08-31 00:05:03 | 46.10036 | 14.75935 | 108° | 77km/h | 10340m | 4.3m/s | 0°C | 0% | 0hPa | 0V | 00:00:00 | 00:00:00 | 00:00:00 | |
| 9A1FER-10 | 2026-08-31 00:05:01 | 46.10048 | 14.75882 | 109° | 78km/h | 10332m | 4.4m/s | 0°C | 0% | 0hPa | 0V | 00:00:00 | 00:00:00 | 00:00:00 | |
| 9A1FER-3 | 2026-08-31 00:04:48 | 46.10125 | 14.75529 | 110° | 78km/h | 10282m | 3.5m/s | 0°C | 0% | 0hPa | 0V | 00:00:00 | 00:00:00 | 00:00:00 | |
| 9A1FER-10 | 2026-08-31 00:04:47 | 46.10139 | 14.75473 | 107° | 73km/h | 10272m | 3.8m/s | 0°C | 0% | 0hPa | 0V | 00:00:00 | 00:00:00 | 00:00:00 | |
| 9A1FER-3 | 2026-08-31 00:04:35 | 46.10212 | 14.75120 | 106° | 78km/h | 10222m | 4.0m/s | 0°C | 0% | 0hPa | 0V | 00:00:00 | 00:00:00 | 00:00:00 | |
| 9A1FER-3 | 2026-08-31 00:04:18 | 46.10299 | 14.74712 | 107° | 78km/h | 10159m | 5.0m/s | 0°C | 0% | 0hPa | 0V | 00:00:00 | 00:00:00 | 00:00:00 | |
| 9A1FER-3 | 2026-08-31 00:04:03 | 46.10374 | 14.74297 | 104° | 73km/h | 10098m | 3.5m/s | 0°C | 0% | 0hPa | 0V | 00:00:00 | 00:00:00 | 00:00:00 | |
| OE3JTB-15 | 2026-08-31 00:03:37 | 46.10505 | 14.73590 | 108° | 80km/h | 9990m | 4.0m/s | 0°C | 0% | 0hPa | 0V | 00:00:00 | 00:00:00 | 00:00:00 | |
| OE3JTB-15 | 2026-08-31 00:03:09 | 46.10645 | 14.72731 | 100° | 80km/h | 9865m | 3.8m/s | 0°C | 0% | 0hPa | 0V | 00:00:00 | 00:00:00 | 00:00:00 | |
| OE3JTB-15 | 2026-08-31 00:02:35 | 46.10938 | 14.70936 | 107° | 78km/h | 9602m | 4.7m/s | 0°C | 0% | 0hPa | 0V | 00:00:00 | 00:00:00 | 00:00:00 | |
| OE3JTB-15 | 2026-08-31 00:01:52 | 46.11073 | 14.70130 | 99° | 71km/h | 9488m | 2.9m/s | 0°C | 0% | 0hPa | 0V | 00:00:00 | 00:00:00 | 00:00:00 | |
| 9A1FER-3 | 2026-08-31 00:01:21 | 46.11144 | 14.69545 | 99° | 69km/h | 9387m | 2.2m/s | 0°C | 0% | 0hPa | 0V | 00:00:00 | 00:00:00 | 00:00:00 | |
| OE3JTB-15 | 2026-08-31 00:01:06 | 46.11177 | 14.69218 | 101° | 68km/h | 9332m | 5.5m/s | 0°C | 0% | 0hPa | 0V | 00:00:00 | 00:00:00 | 00:00:00 | |
| 9A1FER-3 | 2026-08-31 00:00:55 | 46.11195 | 14.69040 | 100° | 68km/h | 9301m | 4.4m/s | 0°C | 0% | 0hPa | 0V | 00:00:00 | 00:00:00 | 00:00:00 | |
| 9A1FER-3 | 2026-08-31 00:00:41 | 46.11235 | 14.68673 | 101° | 66km/h | 9238m | 5.2m/s | 0°C | 0% | 0hPa | 0V | 00:00:00 | 00:00:00 | 00:00:00 | |
| 9A1FER-3 | 2026-08-31 00:00:27 | 46.11271 | 14.68324 | 93° | 68km/h | 9167m | 5.4m/s | 0°C | 0% | 0hPa | 0V | 00:00:00 | 00:00:00 | 00:00:00 | |
| 9A1FER-3 | 2026-08-31 00:00:08 | 46.11314 | 14.67941 | 99° | 60km/h | 9091m | 3.1m/s | 0°C | 0% | 0hPa | 0V | 00:00:00 | 00:00:00 | 00:00:00 | |
| 9A1FER-3 | 2026-08-30 23:59:48 | 46.11335 | 14.67542 | 99° | 64km/h | 9001m | 4.7m/s | 0°C | 0% | 0hPa | 0V | 00:00:00 | 00:00:00 | 00:00:00 | |
| 9A1FER-3 | 2026-08-30 23:59:29 | 46.11363 | 14.67092 | 100° | 62km/h | 8905m | 5.1m/s | 0°C | 0% | 0hPa | 0V | 00:00:00 | 00:00:00 | 00:00:00 |